<?xml version="1.0" encoding="UTF-8" standalone="no" ?>
<gpx xmlns="http://www.topografix.com/GPX/1/1" xmlns:xsi="http://www.w3.org/2001/XMLSchema-instance" xsi:schemaLocation="http://www.topografix.com/GPX/1/1 http://www.topografix.com/GPX/1/1/gpx.xsd" version="1.1" creator="VisuGPX - https://www.visugpx.com">
  <metadata>
    <name>Sentier des Moulins de Bougès</name>
    <desc><![CDATA[Démarrer depuis le parking du Temple de St Julien D\'Arpaon. Le sentier est très bien fléché en jaune avec des pancartes PR tout le long. A l%u2019intérieur du hameau de Bougès soyez vigilant, la pancarte indiquant la descente n\'est pas très visible. ]]></desc>
  </metadata>
  <trk>
    <name><![CDATA[Sentier des Moulins de Bougès_1]]></name>
    <trkseg>
      <trkpt lat="44.30082" lon="3.66373">
        <ele>611</ele>
        <time>2014-05-30T08:45:50Z</time>
      </trkpt>
      <trkpt lat="44.30097" lon="3.66405">
        <ele>624</ele>
        <time>2014-05-30T08:46:32Z</time>
      </trkpt>
      <trkpt lat="44.30097" lon="3.66417">
        <ele>616</ele>
        <time>2014-05-30T08:46:41Z</time>
      </trkpt>
      <trkpt lat="44.30088" lon="3.66411">
        <ele>613</ele>
        <time>2014-05-30T08:46:50Z</time>
      </trkpt>
      <trkpt lat="44.30076" lon="3.66409">
        <ele>614</ele>
        <time>2014-05-30T08:47:00Z</time>
      </trkpt>
      <trkpt lat="44.30072" lon="3.66406">
        <ele>621</ele>
        <time>2014-05-30T08:47:09Z</time>
      </trkpt>
      <trkpt lat="44.3007" lon="3.66396">
        <ele>621</ele>
        <time>2014-05-30T08:47:19Z</time>
      </trkpt>
      <trkpt lat="44.30064" lon="3.66398">
        <ele>621</ele>
        <time>2014-05-30T08:47:29Z</time>
      </trkpt>
      <trkpt lat="44.3006" lon="3.66399">
        <ele>629</ele>
        <time>2014-05-30T08:47:38Z</time>
      </trkpt>
      <trkpt lat="44.30051" lon="3.66396">
        <ele>636</ele>
        <time>2014-05-30T08:47:48Z</time>
      </trkpt>
      <trkpt lat="44.30048" lon="3.66401">
        <ele>642</ele>
        <time>2014-05-30T08:47:57Z</time>
      </trkpt>
      <trkpt lat="44.30049" lon="3.66401">
        <ele>643</ele>
        <time>2014-05-30T08:48:06Z</time>
      </trkpt>
      <trkpt lat="44.30048" lon="3.66404">
        <ele>643</ele>
        <time>2014-05-30T08:48:17Z</time>
      </trkpt>
      <trkpt lat="44.30041" lon="3.66412">
        <ele>639</ele>
        <time>2014-05-30T08:48:28Z</time>
      </trkpt>
      <trkpt lat="44.30046" lon="3.66424">
        <ele>641</ele>
        <time>2014-05-30T08:48:39Z</time>
      </trkpt>
      <trkpt lat="44.30049" lon="3.66431">
        <ele>646</ele>
        <time>2014-05-30T08:48:48Z</time>
      </trkpt>
      <trkpt lat="44.30048" lon="3.66443">
        <ele>648</ele>
        <time>2014-05-30T08:48:58Z</time>
      </trkpt>
      <trkpt lat="44.30051" lon="3.6645">
        <ele>645</ele>
        <time>2014-05-30T08:49:08Z</time>
      </trkpt>
      <trkpt lat="44.30054" lon="3.66461">
        <ele>639</ele>
        <time>2014-05-30T08:49:21Z</time>
      </trkpt>
      <trkpt lat="44.30059" lon="3.66472">
        <ele>640</ele>
        <time>2014-05-30T08:49:31Z</time>
      </trkpt>
      <trkpt lat="44.30065" lon="3.66487">
        <ele>646</ele>
        <time>2014-05-30T08:49:41Z</time>
      </trkpt>
      <trkpt lat="44.30053" lon="3.66494">
        <ele>650</ele>
        <time>2014-05-30T08:49:50Z</time>
      </trkpt>
      <trkpt lat="44.30044" lon="3.66505">
        <ele>647</ele>
        <time>2014-05-30T08:50:04Z</time>
      </trkpt>
      <trkpt lat="44.30033" lon="3.66519">
        <ele>642</ele>
        <time>2014-05-30T08:50:20Z</time>
      </trkpt>
      <trkpt lat="44.30027" lon="3.66531">
        <ele>637</ele>
        <time>2014-05-30T08:50:32Z</time>
      </trkpt>
      <trkpt lat="44.3001" lon="3.66542">
        <ele>637</ele>
        <time>2014-05-30T08:50:46Z</time>
      </trkpt>
      <trkpt lat="44.30004" lon="3.66541">
        <ele>639</ele>
        <time>2014-05-30T08:50:58Z</time>
      </trkpt>
      <trkpt lat="44.2999" lon="3.66547">
        <ele>640</ele>
        <time>2014-05-30T08:51:08Z</time>
      </trkpt>
      <trkpt lat="44.29981" lon="3.66557">
        <ele>643</ele>
        <time>2014-05-30T08:51:18Z</time>
      </trkpt>
      <trkpt lat="44.29975" lon="3.66566">
        <ele>648</ele>
        <time>2014-05-30T08:51:27Z</time>
      </trkpt>
      <trkpt lat="44.29965" lon="3.66574">
        <ele>657</ele>
        <time>2014-05-30T08:51:36Z</time>
      </trkpt>
      <trkpt lat="44.29958" lon="3.66583">
        <ele>665</ele>
        <time>2014-05-30T08:51:46Z</time>
      </trkpt>
      <trkpt lat="44.29954" lon="3.66591">
        <ele>661</ele>
        <time>2014-05-30T08:51:56Z</time>
      </trkpt>
      <trkpt lat="44.29953" lon="3.66592">
        <ele>659</ele>
        <time>2014-05-30T08:52:06Z</time>
      </trkpt>
      <trkpt lat="44.29951" lon="3.66589">
        <ele>659</ele>
        <time>2014-05-30T08:52:51Z</time>
      </trkpt>
      <trkpt lat="44.29948" lon="3.66597">
        <ele>659</ele>
        <time>2014-05-30T08:53:02Z</time>
      </trkpt>
      <trkpt lat="44.29943" lon="3.66611">
        <ele>659</ele>
        <time>2014-05-30T08:53:12Z</time>
      </trkpt>
      <trkpt lat="44.29942" lon="3.66619">
        <ele>658</ele>
        <time>2014-05-30T08:53:21Z</time>
      </trkpt>
      <trkpt lat="44.2994" lon="3.66637">
        <ele>657</ele>
        <time>2014-05-30T08:53:31Z</time>
      </trkpt>
      <trkpt lat="44.2994" lon="3.66641">
        <ele>657</ele>
        <time>2014-05-30T08:53:42Z</time>
      </trkpt>
      <trkpt lat="44.29933" lon="3.66651">
        <ele>657</ele>
        <time>2014-05-30T08:53:51Z</time>
      </trkpt>
      <trkpt lat="44.29925" lon="3.66665">
        <ele>657</ele>
        <time>2014-05-30T08:54:01Z</time>
      </trkpt>
      <trkpt lat="44.29925" lon="3.6667">
        <ele>657</ele>
        <time>2014-05-30T08:54:10Z</time>
      </trkpt>
      <trkpt lat="44.29925" lon="3.66668">
        <ele>657</ele>
        <time>2014-05-30T08:54:23Z</time>
      </trkpt>
      <trkpt lat="44.29917" lon="3.66677">
        <ele>658</ele>
        <time>2014-05-30T08:54:33Z</time>
      </trkpt>
      <trkpt lat="44.29911" lon="3.6669">
        <ele>660</ele>
        <time>2014-05-30T08:54:42Z</time>
      </trkpt>
      <trkpt lat="44.29908" lon="3.66707">
        <ele>661</ele>
        <time>2014-05-30T08:54:51Z</time>
      </trkpt>
      <trkpt lat="44.2991" lon="3.66727">
        <ele>664</ele>
        <time>2014-05-30T08:55:02Z</time>
      </trkpt>
      <trkpt lat="44.29908" lon="3.66745">
        <ele>664</ele>
        <time>2014-05-30T08:55:12Z</time>
      </trkpt>
      <trkpt lat="44.299" lon="3.66742">
        <ele>665</ele>
        <time>2014-05-30T08:55:22Z</time>
      </trkpt>
      <trkpt lat="44.29892" lon="3.66734">
        <ele>666</ele>
        <time>2014-05-30T08:55:31Z</time>
      </trkpt>
      <trkpt lat="44.29882" lon="3.66726">
        <ele>662</ele>
        <time>2014-05-30T08:55:41Z</time>
      </trkpt>
      <trkpt lat="44.29877" lon="3.66734">
        <ele>662</ele>
        <time>2014-05-30T08:55:50Z</time>
      </trkpt>
      <trkpt lat="44.29884" lon="3.66742">
        <ele>662</ele>
        <time>2014-05-30T08:55:59Z</time>
      </trkpt>
      <trkpt lat="44.29891" lon="3.66749">
        <ele>662</ele>
        <time>2014-05-30T08:56:09Z</time>
      </trkpt>
      <trkpt lat="44.29894" lon="3.66759">
        <ele>662</ele>
        <time>2014-05-30T08:56:19Z</time>
      </trkpt>
      <trkpt lat="44.29893" lon="3.66761">
        <ele>664</ele>
        <time>2014-05-30T08:56:29Z</time>
      </trkpt>
      <trkpt lat="44.29892" lon="3.66759">
        <ele>665</ele>
        <time>2014-05-30T08:56:38Z</time>
      </trkpt>
      <trkpt lat="44.29892" lon="3.66761">
        <ele>669</ele>
        <time>2014-05-30T08:57:00Z</time>
      </trkpt>
      <trkpt lat="44.29886" lon="3.66769">
        <ele>669</ele>
        <time>2014-05-30T08:57:11Z</time>
      </trkpt>
      <trkpt lat="44.29885" lon="3.66771">
        <ele>669</ele>
        <time>2014-05-30T08:57:59Z</time>
      </trkpt>
      <trkpt lat="44.29884" lon="3.66769">
        <ele>669</ele>
        <time>2014-05-30T08:58:20Z</time>
      </trkpt>
      <trkpt lat="44.29881" lon="3.66766">
        <ele>670</ele>
        <time>2014-05-30T08:58:40Z</time>
      </trkpt>
      <trkpt lat="44.29879" lon="3.66766">
        <ele>670</ele>
        <time>2014-05-30T08:58:53Z</time>
      </trkpt>
      <trkpt lat="44.29873" lon="3.66772">
        <ele>670</ele>
        <time>2014-05-30T08:59:02Z</time>
      </trkpt>
      <trkpt lat="44.29876" lon="3.66784">
        <ele>672</ele>
        <time>2014-05-30T08:59:12Z</time>
      </trkpt>
      <trkpt lat="44.29876" lon="3.66785">
        <ele>674</ele>
        <time>2014-05-30T08:59:28Z</time>
      </trkpt>
      <trkpt lat="44.29875" lon="3.66786">
        <ele>674</ele>
        <time>2014-05-30T08:59:41Z</time>
      </trkpt>
      <trkpt lat="44.29866" lon="3.6678">
        <ele>674</ele>
        <time>2014-05-30T08:59:51Z</time>
      </trkpt>
      <trkpt lat="44.29857" lon="3.66778">
        <ele>674</ele>
        <time>2014-05-30T09:00:02Z</time>
      </trkpt>
      <trkpt lat="44.29852" lon="3.66777">
        <ele>676</ele>
        <time>2014-05-30T09:00:11Z</time>
      </trkpt>
      <trkpt lat="44.2985" lon="3.66774">
        <ele>676</ele>
        <time>2014-05-30T09:00:24Z</time>
      </trkpt>
      <trkpt lat="44.29848" lon="3.66768">
        <ele>676</ele>
        <time>2014-05-30T09:00:43Z</time>
      </trkpt>
      <trkpt lat="44.29845" lon="3.66767">
        <ele>676</ele>
        <time>2014-05-30T09:01:00Z</time>
      </trkpt>
      <trkpt lat="44.29843" lon="3.66768">
        <ele>676</ele>
        <time>2014-05-30T09:01:19Z</time>
      </trkpt>
      <trkpt lat="44.29841" lon="3.66776">
        <ele>677</ele>
        <time>2014-05-30T09:01:30Z</time>
      </trkpt>
      <trkpt lat="44.29845" lon="3.66772">
        <ele>677</ele>
        <time>2014-05-30T09:01:39Z</time>
      </trkpt>
      <trkpt lat="44.29845" lon="3.66772">
        <ele>679</ele>
        <time>2014-05-30T09:01:50Z</time>
      </trkpt>
      <trkpt lat="44.29845" lon="3.66774">
        <ele>680</ele>
        <time>2014-05-30T09:02:10Z</time>
      </trkpt>
      <trkpt lat="44.29839" lon="3.66774">
        <ele>680</ele>
        <time>2014-05-30T09:02:19Z</time>
      </trkpt>
      <trkpt lat="44.29837" lon="3.66771">
        <ele>680</ele>
        <time>2014-05-30T09:02:28Z</time>
      </trkpt>
      <trkpt lat="44.29834" lon="3.6677">
        <ele>680</ele>
        <time>2014-05-30T09:02:41Z</time>
      </trkpt>
      <trkpt lat="44.29837" lon="3.66763">
        <ele>680</ele>
        <time>2014-05-30T09:02:50Z</time>
      </trkpt>
      <trkpt lat="44.29841" lon="3.66762">
        <ele>680</ele>
        <time>2014-05-30T09:03:01Z</time>
      </trkpt>
      <trkpt lat="44.29841" lon="3.66763">
        <ele>673</ele>
        <time>2014-05-30T09:03:11Z</time>
      </trkpt>
      <trkpt lat="44.29839" lon="3.66767">
        <ele>672</ele>
        <time>2014-05-30T09:03:20Z</time>
      </trkpt>
      <trkpt lat="44.29839" lon="3.66769">
        <ele>665</ele>
        <time>2014-05-30T09:03:29Z</time>
      </trkpt>
      <trkpt lat="44.29839" lon="3.66759">
        <ele>670</ele>
        <time>2014-05-30T09:03:38Z</time>
      </trkpt>
      <trkpt lat="44.29835" lon="3.66756">
        <ele>677</ele>
        <time>2014-05-30T09:03:47Z</time>
      </trkpt>
      <trkpt lat="44.2984" lon="3.66762">
        <ele>680</ele>
        <time>2014-05-30T09:04:00Z</time>
      </trkpt>
      <trkpt lat="44.29845" lon="3.66767">
        <ele>680</ele>
        <time>2014-05-30T09:04:09Z</time>
      </trkpt>
      <trkpt lat="44.29851" lon="3.66767">
        <ele>679</ele>
        <time>2014-05-30T09:04:23Z</time>
      </trkpt>
      <trkpt lat="44.29853" lon="3.6677">
        <ele>679</ele>
        <time>2014-05-30T09:04:38Z</time>
      </trkpt>
      <trkpt lat="44.29854" lon="3.66779">
        <ele>678</ele>
        <time>2014-05-30T09:04:47Z</time>
      </trkpt>
      <trkpt lat="44.29857" lon="3.66779">
        <ele>678</ele>
        <time>2014-05-30T09:05:03Z</time>
      </trkpt>
      <trkpt lat="44.29866" lon="3.66784">
        <ele>677</ele>
        <time>2014-05-30T09:05:13Z</time>
      </trkpt>
      <trkpt lat="44.29868" lon="3.6679">
        <ele>677</ele>
        <time>2014-05-30T09:05:23Z</time>
      </trkpt>
      <trkpt lat="44.29871" lon="3.66802">
        <ele>676</ele>
        <time>2014-05-30T09:05:32Z</time>
      </trkpt>
      <trkpt lat="44.29874" lon="3.66813">
        <ele>675</ele>
        <time>2014-05-30T09:05:41Z</time>
      </trkpt>
      <trkpt lat="44.29874" lon="3.66818">
        <ele>675</ele>
        <time>2014-05-30T09:06:01Z</time>
      </trkpt>
      <trkpt lat="44.2988" lon="3.66827">
        <ele>675</ele>
        <time>2014-05-30T09:06:11Z</time>
      </trkpt>
      <trkpt lat="44.29881" lon="3.66831">
        <ele>674</ele>
        <time>2014-05-30T09:06:20Z</time>
      </trkpt>
      <trkpt lat="44.2988" lon="3.66842">
        <ele>673</ele>
        <time>2014-05-30T09:06:30Z</time>
      </trkpt>
      <trkpt lat="44.29879" lon="3.6685">
        <ele>673</ele>
        <time>2014-05-30T09:06:41Z</time>
      </trkpt>
      <trkpt lat="44.29879" lon="3.66853">
        <ele>677</ele>
        <time>2014-05-30T09:06:52Z</time>
      </trkpt>
      <trkpt lat="44.29882" lon="3.66858">
        <ele>677</ele>
        <time>2014-05-30T09:07:01Z</time>
      </trkpt>
      <trkpt lat="44.29882" lon="3.66864">
        <ele>680</ele>
        <time>2014-05-30T09:07:10Z</time>
      </trkpt>
      <trkpt lat="44.29887" lon="3.6687">
        <ele>683</ele>
        <time>2014-05-30T09:07:20Z</time>
      </trkpt>
      <trkpt lat="44.2989" lon="3.66876">
        <ele>685</ele>
        <time>2014-05-30T09:07:30Z</time>
      </trkpt>
      <trkpt lat="44.29892" lon="3.66885">
        <ele>687</ele>
        <time>2014-05-30T09:07:40Z</time>
      </trkpt>
      <trkpt lat="44.29895" lon="3.6689">
        <ele>687</ele>
        <time>2014-05-30T09:07:49Z</time>
      </trkpt>
      <trkpt lat="44.29898" lon="3.66898">
        <ele>687</ele>
        <time>2014-05-30T09:07:58Z</time>
      </trkpt>
      <trkpt lat="44.29904" lon="3.66906">
        <ele>687</ele>
        <time>2014-05-30T09:08:08Z</time>
      </trkpt>
      <trkpt lat="44.29909" lon="3.66915">
        <ele>689</ele>
        <time>2014-05-30T09:08:19Z</time>
      </trkpt>
      <trkpt lat="44.29914" lon="3.66922">
        <ele>690</ele>
        <time>2014-05-30T09:08:28Z</time>
      </trkpt>
      <trkpt lat="44.29918" lon="3.6693">
        <ele>692</ele>
        <time>2014-05-30T09:08:37Z</time>
      </trkpt>
      <trkpt lat="44.29921" lon="3.66937">
        <ele>693</ele>
        <time>2014-05-30T09:08:46Z</time>
      </trkpt>
      <trkpt lat="44.29926" lon="3.6694">
        <ele>694</ele>
        <time>2014-05-30T09:08:55Z</time>
      </trkpt>
      <trkpt lat="44.2993" lon="3.66943">
        <ele>695</ele>
        <time>2014-05-30T09:09:04Z</time>
      </trkpt>
      <trkpt lat="44.29937" lon="3.66948">
        <ele>698</ele>
        <time>2014-05-30T09:09:15Z</time>
      </trkpt>
      <trkpt lat="44.29941" lon="3.66953">
        <ele>700</ele>
        <time>2014-05-30T09:09:25Z</time>
      </trkpt>
      <trkpt lat="44.29945" lon="3.66957">
        <ele>700</ele>
        <time>2014-05-30T09:09:34Z</time>
      </trkpt>
      <trkpt lat="44.2995" lon="3.66963">
        <ele>703</ele>
        <time>2014-05-30T09:09:44Z</time>
      </trkpt>
      <trkpt lat="44.29952" lon="3.66969">
        <ele>705</ele>
        <time>2014-05-30T09:09:53Z</time>
      </trkpt>
      <trkpt lat="44.29955" lon="3.66975">
        <ele>706</ele>
        <time>2014-05-30T09:10:03Z</time>
      </trkpt>
      <trkpt lat="44.29958" lon="3.66977">
        <ele>707</ele>
        <time>2014-05-30T09:10:12Z</time>
      </trkpt>
      <trkpt lat="44.29964" lon="3.66975">
        <ele>709</ele>
        <time>2014-05-30T09:10:24Z</time>
      </trkpt>
      <trkpt lat="44.2997" lon="3.66975">
        <ele>711</ele>
        <time>2014-05-30T09:10:35Z</time>
      </trkpt>
      <trkpt lat="44.2997" lon="3.66981">
        <ele>713</ele>
        <time>2014-05-30T09:10:45Z</time>
      </trkpt>
      <trkpt lat="44.29968" lon="3.66986">
        <ele>714</ele>
        <time>2014-05-30T09:10:54Z</time>
      </trkpt>
      <trkpt lat="44.29964" lon="3.66993">
        <ele>716</ele>
        <time>2014-05-30T09:11:05Z</time>
      </trkpt>
      <trkpt lat="44.29959" lon="3.66999">
        <ele>717</ele>
        <time>2014-05-30T09:11:22Z</time>
      </trkpt>
      <trkpt lat="44.29962" lon="3.67014">
        <ele>717</ele>
        <time>2014-05-30T09:11:32Z</time>
      </trkpt>
      <trkpt lat="44.29968" lon="3.67019">
        <ele>717</ele>
        <time>2014-05-30T09:11:45Z</time>
      </trkpt>
      <trkpt lat="44.29967" lon="3.67022">
        <ele>717</ele>
        <time>2014-05-30T09:12:11Z</time>
      </trkpt>
      <trkpt lat="44.29967" lon="3.67024">
        <ele>717</ele>
        <time>2014-05-30T09:12:26Z</time>
      </trkpt>
      <trkpt lat="44.29969" lon="3.67034">
        <ele>717</ele>
        <time>2014-05-30T09:12:36Z</time>
      </trkpt>
      <trkpt lat="44.2997" lon="3.67041">
        <ele>718</ele>
        <time>2014-05-30T09:12:47Z</time>
      </trkpt>
      <trkpt lat="44.29973" lon="3.67048">
        <ele>720</ele>
        <time>2014-05-30T09:12:57Z</time>
      </trkpt>
      <trkpt lat="44.29978" lon="3.67048">
        <ele>722</ele>
        <time>2014-05-30T09:13:06Z</time>
      </trkpt>
      <trkpt lat="44.29981" lon="3.67037">
        <ele>724</ele>
        <time>2014-05-30T09:13:16Z</time>
      </trkpt>
      <trkpt lat="44.29984" lon="3.67027">
        <ele>727</ele>
        <time>2014-05-30T09:13:26Z</time>
      </trkpt>
      <trkpt lat="44.29984" lon="3.6702">
        <ele>728</ele>
        <time>2014-05-30T09:13:35Z</time>
      </trkpt>
      <trkpt lat="44.29986" lon="3.67013">
        <ele>728</ele>
        <time>2014-05-30T09:13:44Z</time>
      </trkpt>
      <trkpt lat="44.29988" lon="3.67013">
        <ele>730</ele>
        <time>2014-05-30T09:13:57Z</time>
      </trkpt>
      <trkpt lat="44.29995" lon="3.6702">
        <ele>730</ele>
        <time>2014-05-30T09:14:07Z</time>
      </trkpt>
      <trkpt lat="44.30002" lon="3.67027">
        <ele>732</ele>
        <time>2014-05-30T09:14:19Z</time>
      </trkpt>
      <trkpt lat="44.30001" lon="3.67038">
        <ele>733</ele>
        <time>2014-05-30T09:14:29Z</time>
      </trkpt>
      <trkpt lat="44.30002" lon="3.67047">
        <ele>735</ele>
        <time>2014-05-30T09:14:39Z</time>
      </trkpt>
      <trkpt lat="44.30008" lon="3.67047">
        <ele>736</ele>
        <time>2014-05-30T09:14:48Z</time>
      </trkpt>
      <trkpt lat="44.30013" lon="3.67043">
        <ele>737</ele>
        <time>2014-05-30T09:14:57Z</time>
      </trkpt>
      <trkpt lat="44.30019" lon="3.67044">
        <ele>739</ele>
        <time>2014-05-30T09:15:10Z</time>
      </trkpt>
      <trkpt lat="44.30021" lon="3.67048">
        <ele>740</ele>
        <time>2014-05-30T09:15:21Z</time>
      </trkpt>
      <trkpt lat="44.30022" lon="3.67056">
        <ele>741</ele>
        <time>2014-05-30T09:15:30Z</time>
      </trkpt>
      <trkpt lat="44.30029" lon="3.6706">
        <ele>743</ele>
        <time>2014-05-30T09:15:40Z</time>
      </trkpt>
      <trkpt lat="44.30036" lon="3.67063">
        <ele>745</ele>
        <time>2014-05-30T09:15:50Z</time>
      </trkpt>
      <trkpt lat="44.30042" lon="3.67063">
        <ele>746</ele>
        <time>2014-05-30T09:16:00Z</time>
      </trkpt>
      <trkpt lat="44.30048" lon="3.67062">
        <ele>747</ele>
        <time>2014-05-30T09:16:10Z</time>
      </trkpt>
      <trkpt lat="44.30054" lon="3.6706">
        <ele>748</ele>
        <time>2014-05-30T09:16:19Z</time>
      </trkpt>
      <trkpt lat="44.30058" lon="3.67063">
        <ele>749</ele>
        <time>2014-05-30T09:16:28Z</time>
      </trkpt>
      <trkpt lat="44.30064" lon="3.67065">
        <ele>749</ele>
        <time>2014-05-30T09:16:38Z</time>
      </trkpt>
      <trkpt lat="44.3007" lon="3.67066">
        <ele>749</ele>
        <time>2014-05-30T09:16:48Z</time>
      </trkpt>
      <trkpt lat="44.30071" lon="3.67072">
        <ele>752</ele>
        <time>2014-05-30T09:17:00Z</time>
      </trkpt>
      <trkpt lat="44.30071" lon="3.6708">
        <ele>754</ele>
        <time>2014-05-30T09:17:10Z</time>
      </trkpt>
      <trkpt lat="44.30072" lon="3.67088">
        <ele>757</ele>
        <time>2014-05-30T09:17:20Z</time>
      </trkpt>
      <trkpt lat="44.30073" lon="3.67097">
        <ele>758</ele>
        <time>2014-05-30T09:17:30Z</time>
      </trkpt>
      <trkpt lat="44.30081" lon="3.67099">
        <ele>760</ele>
        <time>2014-05-30T09:17:39Z</time>
      </trkpt>
      <trkpt lat="44.30088" lon="3.67099">
        <ele>761</ele>
        <time>2014-05-30T09:17:49Z</time>
      </trkpt>
      <trkpt lat="44.30095" lon="3.67101">
        <ele>761</ele>
        <time>2014-05-30T09:17:59Z</time>
      </trkpt>
      <trkpt lat="44.30102" lon="3.67101">
        <ele>763</ele>
        <time>2014-05-30T09:18:08Z</time>
      </trkpt>
      <trkpt lat="44.30108" lon="3.67097">
        <ele>766</ele>
        <time>2014-05-30T09:18:19Z</time>
      </trkpt>
      <trkpt lat="44.30115" lon="3.67092">
        <ele>767</ele>
        <time>2014-05-30T09:18:29Z</time>
      </trkpt>
      <trkpt lat="44.3012" lon="3.67091">
        <ele>767</ele>
        <time>2014-05-30T09:18:43Z</time>
      </trkpt>
      <trkpt lat="44.30128" lon="3.67084">
        <ele>767</ele>
        <time>2014-05-30T09:18:55Z</time>
      </trkpt>
      <trkpt lat="44.30139" lon="3.67079">
        <ele>768</ele>
        <time>2014-05-30T09:19:07Z</time>
      </trkpt>
      <trkpt lat="44.30144" lon="3.6708">
        <ele>769</ele>
        <time>2014-05-30T09:19:17Z</time>
      </trkpt>
      <trkpt lat="44.30151" lon="3.67081">
        <ele>770</ele>
        <time>2014-05-30T09:19:29Z</time>
      </trkpt>
      <trkpt lat="44.30156" lon="3.67077">
        <ele>774</ele>
        <time>2014-05-30T09:19:41Z</time>
      </trkpt>
      <trkpt lat="44.30162" lon="3.67077">
        <ele>776</ele>
        <time>2014-05-30T09:19:53Z</time>
      </trkpt>
      <trkpt lat="44.30166" lon="3.67075">
        <ele>786</ele>
        <time>2014-05-30T09:20:08Z</time>
      </trkpt>
      <trkpt lat="44.30174" lon="3.67075">
        <ele>787</ele>
        <time>2014-05-30T09:20:19Z</time>
      </trkpt>
      <trkpt lat="44.30183" lon="3.67076">
        <ele>790</ele>
        <time>2014-05-30T09:20:28Z</time>
      </trkpt>
      <trkpt lat="44.30183" lon="3.67078">
        <ele>791</ele>
        <time>2014-05-30T09:20:37Z</time>
      </trkpt>
      <trkpt lat="44.30181" lon="3.67083">
        <ele>795</ele>
        <time>2014-05-30T09:20:50Z</time>
      </trkpt>
      <trkpt lat="44.30184" lon="3.67081">
        <ele>800</ele>
        <time>2014-05-30T09:21:01Z</time>
      </trkpt>
      <trkpt lat="44.30189" lon="3.67087">
        <ele>797</ele>
        <time>2014-05-30T09:21:11Z</time>
      </trkpt>
      <trkpt lat="44.30193" lon="3.67091">
        <ele>795</ele>
        <time>2014-05-30T09:21:21Z</time>
      </trkpt>
      <trkpt lat="44.30201" lon="3.67089">
        <ele>795</ele>
        <time>2014-05-30T09:21:32Z</time>
      </trkpt>
      <trkpt lat="44.30211" lon="3.67092">
        <ele>793</ele>
        <time>2014-05-30T09:21:43Z</time>
      </trkpt>
      <trkpt lat="44.30213" lon="3.6709">
        <ele>790</ele>
        <time>2014-05-30T09:21:53Z</time>
      </trkpt>
      <trkpt lat="44.30214" lon="3.67084">
        <ele>789</ele>
        <time>2014-05-30T09:22:05Z</time>
      </trkpt>
      <trkpt lat="44.30212" lon="3.67085">
        <ele>799</ele>
        <time>2014-05-30T09:22:15Z</time>
      </trkpt>
      <trkpt lat="44.30213" lon="3.67094">
        <ele>804</ele>
        <time>2014-05-30T09:22:26Z</time>
      </trkpt>
      <trkpt lat="44.30219" lon="3.67101">
        <ele>804</ele>
        <time>2014-05-30T09:22:36Z</time>
      </trkpt>
      <trkpt lat="44.3022" lon="3.67095">
        <ele>806</ele>
        <time>2014-05-30T09:22:46Z</time>
      </trkpt>
      <trkpt lat="44.30225" lon="3.67094">
        <ele>815</ele>
        <time>2014-05-30T09:22:56Z</time>
      </trkpt>
      <trkpt lat="44.30233" lon="3.67092">
        <ele>815</ele>
        <time>2014-05-30T09:23:06Z</time>
      </trkpt>
      <trkpt lat="44.30236" lon="3.67086">
        <ele>815</ele>
        <time>2014-05-30T09:23:15Z</time>
      </trkpt>
      <trkpt lat="44.30238" lon="3.67086">
        <ele>815</ele>
        <time>2014-05-30T09:23:26Z</time>
      </trkpt>
      <trkpt lat="44.30242" lon="3.67083">
        <ele>817</ele>
        <time>2014-05-30T09:23:36Z</time>
      </trkpt>
      <trkpt lat="44.30256" lon="3.67073">
        <ele>817</ele>
        <time>2014-05-30T09:23:45Z</time>
      </trkpt>
      <trkpt lat="44.30257" lon="3.67066">
        <ele>817</ele>
        <time>2014-05-30T09:23:54Z</time>
      </trkpt>
      <trkpt lat="44.3026" lon="3.67063">
        <ele>817</ele>
        <time>2014-05-30T09:24:04Z</time>
      </trkpt>
      <trkpt lat="44.30259" lon="3.67071">
        <ele>817</ele>
        <time>2014-05-30T09:24:13Z</time>
      </trkpt>
      <trkpt lat="44.30257" lon="3.6708">
        <ele>817</ele>
        <time>2014-05-30T09:24:23Z</time>
      </trkpt>
      <trkpt lat="44.30255" lon="3.67091">
        <ele>817</ele>
        <time>2014-05-30T09:24:32Z</time>
      </trkpt>
      <trkpt lat="44.30254" lon="3.67099">
        <ele>818</ele>
        <time>2014-05-30T09:24:41Z</time>
      </trkpt>
      <trkpt lat="44.30254" lon="3.67107">
        <ele>819</ele>
        <time>2014-05-30T09:24:53Z</time>
      </trkpt>
      <trkpt lat="44.30249" lon="3.67117">
        <ele>820</ele>
        <time>2014-05-30T09:25:03Z</time>
      </trkpt>
      <trkpt lat="44.30245" lon="3.67127">
        <ele>822</ele>
        <time>2014-05-30T09:25:12Z</time>
      </trkpt>
      <trkpt lat="44.30243" lon="3.67137">
        <ele>825</ele>
        <time>2014-05-30T09:25:23Z</time>
      </trkpt>
      <trkpt lat="44.30241" lon="3.67145">
        <ele>826</ele>
        <time>2014-05-30T09:25:32Z</time>
      </trkpt>
      <trkpt lat="44.30239" lon="3.67152">
        <ele>826</ele>
        <time>2014-05-30T09:25:41Z</time>
      </trkpt>
      <trkpt lat="44.30236" lon="3.67159">
        <ele>830</ele>
        <time>2014-05-30T09:25:51Z</time>
      </trkpt>
      <trkpt lat="44.30235" lon="3.67169">
        <ele>834</ele>
        <time>2014-05-30T09:26:01Z</time>
      </trkpt>
      <trkpt lat="44.3023" lon="3.67179">
        <ele>836</ele>
        <time>2014-05-30T09:26:11Z</time>
      </trkpt>
      <trkpt lat="44.30225" lon="3.67187">
        <ele>838</ele>
        <time>2014-05-30T09:26:23Z</time>
      </trkpt>
      <trkpt lat="44.30222" lon="3.67197">
        <ele>839</ele>
        <time>2014-05-30T09:26:32Z</time>
      </trkpt>
      <trkpt lat="44.30221" lon="3.67204">
        <ele>839</ele>
        <time>2014-05-30T09:26:42Z</time>
      </trkpt>
      <trkpt lat="44.30227" lon="3.67207">
        <ele>839</ele>
        <time>2014-05-30T09:26:51Z</time>
      </trkpt>
      <trkpt lat="44.30232" lon="3.67206">
        <ele>840</ele>
        <time>2014-05-30T09:27:02Z</time>
      </trkpt>
      <trkpt lat="44.30236" lon="3.67204">
        <ele>841</ele>
        <time>2014-05-30T09:27:11Z</time>
      </trkpt>
      <trkpt lat="44.30241" lon="3.67202">
        <ele>843</ele>
        <time>2014-05-30T09:27:22Z</time>
      </trkpt>
      <trkpt lat="44.30246" lon="3.67196">
        <ele>845</ele>
        <time>2014-05-30T09:27:33Z</time>
      </trkpt>
      <trkpt lat="44.30249" lon="3.67194">
        <ele>847</ele>
        <time>2014-05-30T09:27:42Z</time>
      </trkpt>
      <trkpt lat="44.30255" lon="3.6719">
        <ele>848</ele>
        <time>2014-05-30T09:27:52Z</time>
      </trkpt>
      <trkpt lat="44.30261" lon="3.67186">
        <ele>848</ele>
        <time>2014-05-30T09:28:01Z</time>
      </trkpt>
      <trkpt lat="44.30267" lon="3.6718">
        <ele>849</ele>
        <time>2014-05-30T09:28:11Z</time>
      </trkpt>
      <trkpt lat="44.30273" lon="3.67173">
        <ele>850</ele>
        <time>2014-05-30T09:28:21Z</time>
      </trkpt>
      <trkpt lat="44.30277" lon="3.67166">
        <ele>852</ele>
        <time>2014-05-30T09:28:31Z</time>
      </trkpt>
      <trkpt lat="44.30281" lon="3.67159">
        <ele>852</ele>
        <time>2014-05-30T09:28:40Z</time>
      </trkpt>
      <trkpt lat="44.30287" lon="3.67154">
        <ele>854</ele>
        <time>2014-05-30T09:28:51Z</time>
      </trkpt>
      <trkpt lat="44.30291" lon="3.67144">
        <ele>856</ele>
        <time>2014-05-30T09:29:01Z</time>
      </trkpt>
      <trkpt lat="44.30298" lon="3.67138">
        <ele>857</ele>
        <time>2014-05-30T09:29:12Z</time>
      </trkpt>
      <trkpt lat="44.30305" lon="3.67133">
        <ele>859</ele>
        <time>2014-05-30T09:29:23Z</time>
      </trkpt>
      <trkpt lat="44.3031" lon="3.67128">
        <ele>859</ele>
        <time>2014-05-30T09:29:32Z</time>
      </trkpt>
      <trkpt lat="44.30315" lon="3.67125">
        <ele>860</ele>
        <time>2014-05-30T09:29:42Z</time>
      </trkpt>
      <trkpt lat="44.3032" lon="3.67123">
        <ele>861</ele>
        <time>2014-05-30T09:29:51Z</time>
      </trkpt>
      <trkpt lat="44.30324" lon="3.67119">
        <ele>863</ele>
        <time>2014-05-30T09:30:00Z</time>
      </trkpt>
      <trkpt lat="44.30328" lon="3.67113">
        <ele>865</ele>
        <time>2014-05-30T09:30:10Z</time>
      </trkpt>
      <trkpt lat="44.30333" lon="3.67108">
        <ele>867</ele>
        <time>2014-05-30T09:30:19Z</time>
      </trkpt>
      <trkpt lat="44.30339" lon="3.67102">
        <ele>868</ele>
        <time>2014-05-30T09:30:29Z</time>
      </trkpt>
      <trkpt lat="44.30341" lon="3.67097">
        <ele>869</ele>
        <time>2014-05-30T09:30:38Z</time>
      </trkpt>
      <trkpt lat="44.30347" lon="3.67095">
        <ele>870</ele>
        <time>2014-05-30T09:30:48Z</time>
      </trkpt>
      <trkpt lat="44.3035" lon="3.67092">
        <ele>870</ele>
        <time>2014-05-30T09:30:57Z</time>
      </trkpt>
      <trkpt lat="44.30355" lon="3.67093">
        <ele>871</ele>
        <time>2014-05-30T09:31:10Z</time>
      </trkpt>
      <trkpt lat="44.30355" lon="3.67098">
        <ele>872</ele>
        <time>2014-05-30T09:31:19Z</time>
      </trkpt>
      <trkpt lat="44.30358" lon="3.67098">
        <ele>872</ele>
        <time>2014-05-30T09:31:30Z</time>
      </trkpt>
      <trkpt lat="44.30358" lon="3.67099">
        <ele>872</ele>
        <time>2014-05-30T09:31:47Z</time>
      </trkpt>
      <trkpt lat="44.30359" lon="3.671">
        <ele>874</ele>
        <time>2014-05-30T09:31:56Z</time>
      </trkpt>
      <trkpt lat="44.30365" lon="3.67093">
        <ele>875</ele>
        <time>2014-05-30T09:32:06Z</time>
      </trkpt>
      <trkpt lat="44.30366" lon="3.6709">
        <ele>875</ele>
        <time>2014-05-30T09:32:22Z</time>
      </trkpt>
      <trkpt lat="44.30369" lon="3.67079">
        <ele>875</ele>
        <time>2014-05-30T09:32:32Z</time>
      </trkpt>
      <trkpt lat="44.30371" lon="3.67074">
        <ele>875</ele>
        <time>2014-05-30T09:32:41Z</time>
      </trkpt>
      <trkpt lat="44.30374" lon="3.67073">
        <ele>875</ele>
        <time>2014-05-30T09:32:52Z</time>
      </trkpt>
      <trkpt lat="44.30376" lon="3.67071">
        <ele>875</ele>
        <time>2014-05-30T09:33:01Z</time>
      </trkpt>
      <trkpt lat="44.30379" lon="3.67069">
        <ele>878</ele>
        <time>2014-05-30T09:33:12Z</time>
      </trkpt>
      <trkpt lat="44.30382" lon="3.67066">
        <ele>880</ele>
        <time>2014-05-30T09:33:22Z</time>
      </trkpt>
      <trkpt lat="44.30385" lon="3.67062">
        <ele>882</ele>
        <time>2014-05-30T09:33:34Z</time>
      </trkpt>
      <trkpt lat="44.30389" lon="3.67057">
        <ele>883</ele>
        <time>2014-05-30T09:33:43Z</time>
      </trkpt>
      <trkpt lat="44.30391" lon="3.67053">
        <ele>885</ele>
        <time>2014-05-30T09:33:52Z</time>
      </trkpt>
      <trkpt lat="44.30394" lon="3.67048">
        <ele>888</ele>
        <time>2014-05-30T09:34:03Z</time>
      </trkpt>
      <trkpt lat="44.30396" lon="3.67044">
        <ele>889</ele>
        <time>2014-05-30T09:34:12Z</time>
      </trkpt>
      <trkpt lat="44.30398" lon="3.6704">
        <ele>890</ele>
        <time>2014-05-30T09:34:23Z</time>
      </trkpt>
      <trkpt lat="44.304" lon="3.67035">
        <ele>891</ele>
        <time>2014-05-30T09:34:32Z</time>
      </trkpt>
      <trkpt lat="44.30403" lon="3.67032">
        <ele>892</ele>
        <time>2014-05-30T09:34:45Z</time>
      </trkpt>
      <trkpt lat="44.30404" lon="3.67027">
        <ele>894</ele>
        <time>2014-05-30T09:34:56Z</time>
      </trkpt>
      <trkpt lat="44.30408" lon="3.67024">
        <ele>896</ele>
        <time>2014-05-30T09:35:09Z</time>
      </trkpt>
      <trkpt lat="44.30409" lon="3.67021">
        <ele>896</ele>
        <time>2014-05-30T09:35:18Z</time>
      </trkpt>
      <trkpt lat="44.3041" lon="3.6702">
        <ele>898</ele>
        <time>2014-05-30T09:35:42Z</time>
      </trkpt>
      <trkpt lat="44.30412" lon="3.67014">
        <ele>899</ele>
        <time>2014-05-30T09:35:52Z</time>
      </trkpt>
      <trkpt lat="44.30413" lon="3.67005">
        <ele>901</ele>
        <time>2014-05-30T09:36:03Z</time>
      </trkpt>
      <trkpt lat="44.30418" lon="3.67001">
        <ele>903</ele>
        <time>2014-05-30T09:36:14Z</time>
      </trkpt>
      <trkpt lat="44.30423" lon="3.66997">
        <ele>905</ele>
        <time>2014-05-30T09:36:26Z</time>
      </trkpt>
      <trkpt lat="44.30426" lon="3.66996">
        <ele>906</ele>
        <time>2014-05-30T09:36:35Z</time>
      </trkpt>
      <trkpt lat="44.30433" lon="3.67002">
        <ele>906</ele>
        <time>2014-05-30T09:36:44Z</time>
      </trkpt>
      <trkpt lat="44.30439" lon="3.67011">
        <ele>906</ele>
        <time>2014-05-30T09:36:54Z</time>
      </trkpt>
      <trkpt lat="44.30441" lon="3.67015">
        <ele>906</ele>
        <time>2014-05-30T09:37:09Z</time>
      </trkpt>
      <trkpt lat="44.30445" lon="3.67023">
        <ele>906</ele>
        <time>2014-05-30T09:37:19Z</time>
      </trkpt>
      <trkpt lat="44.3045" lon="3.67033">
        <ele>906</ele>
        <time>2014-05-30T09:37:28Z</time>
      </trkpt>
      <trkpt lat="44.30451" lon="3.67036">
        <ele>906</ele>
        <time>2014-05-30T09:37:39Z</time>
      </trkpt>
      <trkpt lat="44.30457" lon="3.67048">
        <ele>907</ele>
        <time>2014-05-30T09:37:48Z</time>
      </trkpt>
      <trkpt lat="44.3046" lon="3.67061">
        <ele>907</ele>
        <time>2014-05-30T09:37:57Z</time>
      </trkpt>
      <trkpt lat="44.30463" lon="3.67074">
        <ele>907</ele>
        <time>2014-05-30T09:38:06Z</time>
      </trkpt>
      <trkpt lat="44.30464" lon="3.67083">
        <ele>907</ele>
        <time>2014-05-30T09:38:15Z</time>
      </trkpt>
      <trkpt lat="44.3047" lon="3.67088">
        <ele>909</ele>
        <time>2014-05-30T09:38:24Z</time>
      </trkpt>
      <trkpt lat="44.30472" lon="3.67096">
        <ele>910</ele>
        <time>2014-05-30T09:38:33Z</time>
      </trkpt>
      <trkpt lat="44.30474" lon="3.67103">
        <ele>911</ele>
        <time>2014-05-30T09:38:42Z</time>
      </trkpt>
      <trkpt lat="44.30477" lon="3.67108">
        <ele>913</ele>
        <time>2014-05-30T09:38:51Z</time>
      </trkpt>
      <trkpt lat="44.30479" lon="3.67115">
        <ele>916</ele>
        <time>2014-05-30T09:39:01Z</time>
      </trkpt>
      <trkpt lat="44.30482" lon="3.6712">
        <ele>918</ele>
        <time>2014-05-30T09:39:10Z</time>
      </trkpt>
      <trkpt lat="44.30483" lon="3.67125">
        <ele>920</ele>
        <time>2014-05-30T09:39:19Z</time>
      </trkpt>
      <trkpt lat="44.30487" lon="3.6713">
        <ele>922</ele>
        <time>2014-05-30T09:39:29Z</time>
      </trkpt>
      <trkpt lat="44.3049" lon="3.67134">
        <ele>924</ele>
        <time>2014-05-30T09:39:40Z</time>
      </trkpt>
      <trkpt lat="44.30492" lon="3.67138">
        <ele>925</ele>
        <time>2014-05-30T09:39:50Z</time>
      </trkpt>
      <trkpt lat="44.30495" lon="3.67142">
        <ele>927</ele>
        <time>2014-05-30T09:40:01Z</time>
      </trkpt>
      <trkpt lat="44.30498" lon="3.67147">
        <ele>929</ele>
        <time>2014-05-30T09:40:12Z</time>
      </trkpt>
      <trkpt lat="44.305" lon="3.67152">
        <ele>930</ele>
        <time>2014-05-30T09:40:22Z</time>
      </trkpt>
      <trkpt lat="44.30502" lon="3.67157">
        <ele>932</ele>
        <time>2014-05-30T09:40:32Z</time>
      </trkpt>
      <trkpt lat="44.30504" lon="3.67163">
        <ele>935</ele>
        <time>2014-05-30T09:40:43Z</time>
      </trkpt>
      <trkpt lat="44.30506" lon="3.67168">
        <ele>937</ele>
        <time>2014-05-30T09:40:52Z</time>
      </trkpt>
      <trkpt lat="44.30509" lon="3.67173">
        <ele>938</ele>
        <time>2014-05-30T09:41:02Z</time>
      </trkpt>
      <trkpt lat="44.30511" lon="3.67179">
        <ele>939</ele>
        <time>2014-05-30T09:41:11Z</time>
      </trkpt>
      <trkpt lat="44.30513" lon="3.67184">
        <ele>939</ele>
        <time>2014-05-30T09:41:20Z</time>
      </trkpt>
      <trkpt lat="44.30516" lon="3.67189">
        <ele>939</ele>
        <time>2014-05-30T09:41:31Z</time>
      </trkpt>
      <trkpt lat="44.30517" lon="3.67194">
        <ele>941</ele>
        <time>2014-05-30T09:41:41Z</time>
      </trkpt>
      <trkpt lat="44.30518" lon="3.672">
        <ele>942</ele>
        <time>2014-05-30T09:41:51Z</time>
      </trkpt>
      <trkpt lat="44.30519" lon="3.67206">
        <ele>944</ele>
        <time>2014-05-30T09:42:00Z</time>
      </trkpt>
      <trkpt lat="44.30523" lon="3.6721">
        <ele>944</ele>
        <time>2014-05-30T09:42:10Z</time>
      </trkpt>
      <trkpt lat="44.30524" lon="3.67215">
        <ele>945</ele>
        <time>2014-05-30T09:42:19Z</time>
      </trkpt>
      <trkpt lat="44.30526" lon="3.6722">
        <ele>948</ele>
        <time>2014-05-30T09:42:29Z</time>
      </trkpt>
      <trkpt lat="44.30527" lon="3.67225">
        <ele>950</ele>
        <time>2014-05-30T09:42:39Z</time>
      </trkpt>
      <trkpt lat="44.30529" lon="3.6723">
        <ele>953</ele>
        <time>2014-05-30T09:42:49Z</time>
      </trkpt>
      <trkpt lat="44.30533" lon="3.67236">
        <ele>955</ele>
        <time>2014-05-30T09:43:01Z</time>
      </trkpt>
      <trkpt lat="44.30536" lon="3.67241">
        <ele>956</ele>
        <time>2014-05-30T09:43:10Z</time>
      </trkpt>
      <trkpt lat="44.30538" lon="3.67248">
        <ele>957</ele>
        <time>2014-05-30T09:43:21Z</time>
      </trkpt>
      <trkpt lat="44.3054" lon="3.67254">
        <ele>959</ele>
        <time>2014-05-30T09:43:33Z</time>
      </trkpt>
      <trkpt lat="44.30545" lon="3.67258">
        <ele>960</ele>
        <time>2014-05-30T09:43:44Z</time>
      </trkpt>
      <trkpt lat="44.30548" lon="3.67257">
        <ele>963</ele>
        <time>2014-05-30T09:43:54Z</time>
      </trkpt>
      <trkpt lat="44.30552" lon="3.67261">
        <ele>963</ele>
        <time>2014-05-30T09:44:03Z</time>
      </trkpt>
      <trkpt lat="44.30554" lon="3.67262">
        <ele>964</ele>
        <time>2014-05-30T09:44:24Z</time>
      </trkpt>
      <trkpt lat="44.30557" lon="3.67264">
        <ele>965</ele>
        <time>2014-05-30T09:44:34Z</time>
      </trkpt>
      <trkpt lat="44.30564" lon="3.67265">
        <ele>965</ele>
        <time>2014-05-30T09:44:44Z</time>
      </trkpt>
      <trkpt lat="44.30571" lon="3.67267">
        <ele>966</ele>
        <time>2014-05-30T09:44:54Z</time>
      </trkpt>
      <trkpt lat="44.30579" lon="3.6727">
        <ele>967</ele>
        <time>2014-05-30T09:45:04Z</time>
      </trkpt>
      <trkpt lat="44.30585" lon="3.67274">
        <ele>967</ele>
        <time>2014-05-30T09:45:14Z</time>
      </trkpt>
      <trkpt lat="44.30591" lon="3.67277">
        <ele>968</ele>
        <time>2014-05-30T09:45:23Z</time>
      </trkpt>
      <trkpt lat="44.30596" lon="3.67282">
        <ele>969</ele>
        <time>2014-05-30T09:45:33Z</time>
      </trkpt>
      <trkpt lat="44.306" lon="3.67283">
        <ele>970</ele>
        <time>2014-05-30T09:45:44Z</time>
      </trkpt>
      <trkpt lat="44.30604" lon="3.67283">
        <ele>972</ele>
        <time>2014-05-30T09:45:53Z</time>
      </trkpt>
      <trkpt lat="44.3061" lon="3.67289">
        <ele>974</ele>
        <time>2014-05-30T09:46:02Z</time>
      </trkpt>
      <trkpt lat="44.30617" lon="3.67296">
        <ele>975</ele>
        <time>2014-05-30T09:46:12Z</time>
      </trkpt>
      <trkpt lat="44.30626" lon="3.673">
        <ele>976</ele>
        <time>2014-05-30T09:46:22Z</time>
      </trkpt>
      <trkpt lat="44.30632" lon="3.67306">
        <ele>977</ele>
        <time>2014-05-30T09:46:31Z</time>
      </trkpt>
      <trkpt lat="44.30637" lon="3.6731">
        <ele>978</ele>
        <time>2014-05-30T09:46:40Z</time>
      </trkpt>
      <trkpt lat="44.30644" lon="3.67317">
        <ele>978</ele>
        <time>2014-05-30T09:46:50Z</time>
      </trkpt>
      <trkpt lat="44.30651" lon="3.67323">
        <ele>978</ele>
        <time>2014-05-30T09:47:01Z</time>
      </trkpt>
      <trkpt lat="44.30658" lon="3.6733">
        <ele>978</ele>
        <time>2014-05-30T09:47:11Z</time>
      </trkpt>
      <trkpt lat="44.30665" lon="3.6734">
        <ele>978</ele>
        <time>2014-05-30T09:47:21Z</time>
      </trkpt>
      <trkpt lat="44.3067" lon="3.67352">
        <ele>978</ele>
        <time>2014-05-30T09:47:31Z</time>
      </trkpt>
      <trkpt lat="44.30676" lon="3.67363">
        <ele>978</ele>
        <time>2014-05-30T09:47:40Z</time>
      </trkpt>
      <trkpt lat="44.30681" lon="3.67375">
        <ele>978</ele>
        <time>2014-05-30T09:47:49Z</time>
      </trkpt>
      <trkpt lat="44.30689" lon="3.67387">
        <ele>978</ele>
        <time>2014-05-30T09:47:59Z</time>
      </trkpt>
      <trkpt lat="44.30695" lon="3.674">
        <ele>978</ele>
        <time>2014-05-30T09:48:08Z</time>
      </trkpt>
      <trkpt lat="44.30698" lon="3.67414">
        <ele>978</ele>
        <time>2014-05-30T09:48:18Z</time>
      </trkpt>
      <trkpt lat="44.30703" lon="3.67427">
        <ele>978</ele>
        <time>2014-05-30T09:48:38Z</time>
      </trkpt>
      <trkpt lat="44.30706" lon="3.67437">
        <ele>978</ele>
        <time>2014-05-30T09:48:47Z</time>
      </trkpt>
      <trkpt lat="44.3071" lon="3.67448">
        <ele>978</ele>
        <time>2014-05-30T09:48:56Z</time>
      </trkpt>
      <trkpt lat="44.30713" lon="3.67457">
        <ele>978</ele>
        <time>2014-05-30T09:49:05Z</time>
      </trkpt>
      <trkpt lat="44.30716" lon="3.67465">
        <ele>978</ele>
        <time>2014-05-30T09:49:14Z</time>
      </trkpt>
      <trkpt lat="44.30719" lon="3.67472">
        <ele>978</ele>
        <time>2014-05-30T09:49:29Z</time>
      </trkpt>
      <trkpt lat="44.30723" lon="3.6748">
        <ele>978</ele>
        <time>2014-05-30T09:49:39Z</time>
      </trkpt>
      <trkpt lat="44.30727" lon="3.67492">
        <ele>978</ele>
        <time>2014-05-30T09:49:48Z</time>
      </trkpt>
      <trkpt lat="44.3073" lon="3.67506">
        <ele>977</ele>
        <time>2014-05-30T09:49:58Z</time>
      </trkpt>
      <trkpt lat="44.30735" lon="3.67519">
        <ele>977</ele>
        <time>2014-05-30T09:50:07Z</time>
      </trkpt>
      <trkpt lat="44.30742" lon="3.67531">
        <ele>976</ele>
        <time>2014-05-30T09:50:16Z</time>
      </trkpt>
      <trkpt lat="44.3075" lon="3.67544">
        <ele>974</ele>
        <time>2014-05-30T09:50:26Z</time>
      </trkpt>
      <trkpt lat="44.30756" lon="3.67554">
        <ele>972</ele>
        <time>2014-05-30T09:50:36Z</time>
      </trkpt>
      <trkpt lat="44.30761" lon="3.67565">
        <ele>971</ele>
        <time>2014-05-30T09:50:45Z</time>
      </trkpt>
      <trkpt lat="44.30764" lon="3.67576">
        <ele>970</ele>
        <time>2014-05-30T09:50:54Z</time>
      </trkpt>
      <trkpt lat="44.30767" lon="3.67587">
        <ele>969</ele>
        <time>2014-05-30T09:51:03Z</time>
      </trkpt>
      <trkpt lat="44.30773" lon="3.676">
        <ele>968</ele>
        <time>2014-05-30T09:51:12Z</time>
      </trkpt>
      <trkpt lat="44.30779" lon="3.67615">
        <ele>968</ele>
        <time>2014-05-30T09:51:22Z</time>
      </trkpt>
      <trkpt lat="44.30783" lon="3.67628">
        <ele>968</ele>
        <time>2014-05-30T09:51:31Z</time>
      </trkpt>
      <trkpt lat="44.30787" lon="3.67641">
        <ele>968</ele>
        <time>2014-05-30T09:51:41Z</time>
      </trkpt>
      <trkpt lat="44.3079" lon="3.67653">
        <ele>968</ele>
        <time>2014-05-30T09:51:50Z</time>
      </trkpt>
      <trkpt lat="44.30793" lon="3.67663">
        <ele>968</ele>
        <time>2014-05-30T09:52:00Z</time>
      </trkpt>
      <trkpt lat="44.30794" lon="3.67674">
        <ele>967</ele>
        <time>2014-05-30T09:52:10Z</time>
      </trkpt>
      <trkpt lat="44.30794" lon="3.67683">
        <ele>967</ele>
        <time>2014-05-30T09:52:20Z</time>
      </trkpt>
      <trkpt lat="44.30795" lon="3.67687">
        <ele>967</ele>
        <time>2014-05-30T09:52:39Z</time>
      </trkpt>
      <trkpt lat="44.30795" lon="3.67699">
        <ele>967</ele>
        <time>2014-05-30T09:52:48Z</time>
      </trkpt>
      <trkpt lat="44.30796" lon="3.67715">
        <ele>967</ele>
        <time>2014-05-30T09:52:58Z</time>
      </trkpt>
      <trkpt lat="44.30798" lon="3.67728">
        <ele>967</ele>
        <time>2014-05-30T09:53:07Z</time>
      </trkpt>
      <trkpt lat="44.308" lon="3.67743">
        <ele>968</ele>
        <time>2014-05-30T09:53:17Z</time>
      </trkpt>
      <trkpt lat="44.30804" lon="3.67758">
        <ele>968</ele>
        <time>2014-05-30T09:53:27Z</time>
      </trkpt>
      <trkpt lat="44.30808" lon="3.67772">
        <ele>967</ele>
        <time>2014-05-30T09:53:37Z</time>
      </trkpt>
      <trkpt lat="44.3081" lon="3.67782">
        <ele>965</ele>
        <time>2014-05-30T09:53:46Z</time>
      </trkpt>
      <trkpt lat="44.30812" lon="3.67794">
        <ele>965</ele>
        <time>2014-05-30T09:53:55Z</time>
      </trkpt>
      <trkpt lat="44.30814" lon="3.67805">
        <ele>964</ele>
        <time>2014-05-30T09:54:15Z</time>
      </trkpt>
      <trkpt lat="44.30816" lon="3.67809">
        <ele>961</ele>
        <time>2014-05-30T09:54:30Z</time>
      </trkpt>
      <trkpt lat="44.30819" lon="3.67822">
        <ele>960</ele>
        <time>2014-05-30T09:54:43Z</time>
      </trkpt>
      <trkpt lat="44.30821" lon="3.67834">
        <ele>960</ele>
        <time>2014-05-30T09:54:52Z</time>
      </trkpt>
      <trkpt lat="44.30825" lon="3.67846">
        <ele>959</ele>
        <time>2014-05-30T09:55:01Z</time>
      </trkpt>
      <trkpt lat="44.30827" lon="3.67859">
        <ele>958</ele>
        <time>2014-05-30T09:55:11Z</time>
      </trkpt>
      <trkpt lat="44.3083" lon="3.67872">
        <ele>957</ele>
        <time>2014-05-30T09:55:20Z</time>
      </trkpt>
      <trkpt lat="44.30834" lon="3.67886">
        <ele>957</ele>
        <time>2014-05-30T09:55:29Z</time>
      </trkpt>
      <trkpt lat="44.30836" lon="3.67898">
        <ele>957</ele>
        <time>2014-05-30T09:55:38Z</time>
      </trkpt>
      <trkpt lat="44.30836" lon="3.67911">
        <ele>956</ele>
        <time>2014-05-30T09:55:48Z</time>
      </trkpt>
      <trkpt lat="44.30834" lon="3.67922">
        <ele>954</ele>
        <time>2014-05-30T09:55:58Z</time>
      </trkpt>
      <trkpt lat="44.30834" lon="3.67928">
        <ele>954</ele>
        <time>2014-05-30T09:56:08Z</time>
      </trkpt>
      <trkpt lat="44.30833" lon="3.67938">
        <ele>953</ele>
        <time>2014-05-30T09:56:18Z</time>
      </trkpt>
      <trkpt lat="44.3083" lon="3.67949">
        <ele>951</ele>
        <time>2014-05-30T09:56:27Z</time>
      </trkpt>
      <trkpt lat="44.30826" lon="3.67961">
        <ele>950</ele>
        <time>2014-05-30T09:56:37Z</time>
      </trkpt>
      <trkpt lat="44.30824" lon="3.6797">
        <ele>948</ele>
        <time>2014-05-30T09:56:56Z</time>
      </trkpt>
      <trkpt lat="44.30823" lon="3.67972">
        <ele>948</ele>
        <time>2014-05-30T09:57:10Z</time>
      </trkpt>
      <trkpt lat="44.3082" lon="3.67983">
        <ele>947</ele>
        <time>2014-05-30T09:57:19Z</time>
      </trkpt>
      <trkpt lat="44.3082" lon="3.67996">
        <ele>946</ele>
        <time>2014-05-30T09:57:28Z</time>
      </trkpt>
      <trkpt lat="44.30822" lon="3.68011">
        <ele>945</ele>
        <time>2014-05-30T09:57:38Z</time>
      </trkpt>
      <trkpt lat="44.30823" lon="3.68025">
        <ele>945</ele>
        <time>2014-05-30T09:57:47Z</time>
      </trkpt>
      <trkpt lat="44.30825" lon="3.68039">
        <ele>944</ele>
        <time>2014-05-30T09:57:56Z</time>
      </trkpt>
      <trkpt lat="44.3082" lon="3.68056">
        <ele>944</ele>
        <time>2014-05-30T09:58:05Z</time>
      </trkpt>
      <trkpt lat="44.30819" lon="3.6807">
        <ele>944</ele>
        <time>2014-05-30T09:58:14Z</time>
      </trkpt>
      <trkpt lat="44.3082" lon="3.68085">
        <ele>944</ele>
        <time>2014-05-30T09:58:23Z</time>
      </trkpt>
      <trkpt lat="44.30817" lon="3.68103">
        <ele>944</ele>
        <time>2014-05-30T09:58:32Z</time>
      </trkpt>
      <trkpt lat="44.30817" lon="3.68116">
        <ele>943</ele>
        <time>2014-05-30T09:58:41Z</time>
      </trkpt>
      <trkpt lat="44.30816" lon="3.68126">
        <ele>942</ele>
        <time>2014-05-30T09:59:03Z</time>
      </trkpt>
      <trkpt lat="44.3081" lon="3.68135">
        <ele>942</ele>
        <time>2014-05-30T09:59:12Z</time>
      </trkpt>
      <trkpt lat="44.30802" lon="3.6815">
        <ele>942</ele>
        <time>2014-05-30T09:59:22Z</time>
      </trkpt>
      <trkpt lat="44.30799" lon="3.68161">
        <ele>942</ele>
        <time>2014-05-30T09:59:37Z</time>
      </trkpt>
      <trkpt lat="44.30796" lon="3.68174">
        <ele>942</ele>
        <time>2014-05-30T09:59:47Z</time>
      </trkpt>
      <trkpt lat="44.30792" lon="3.68185">
        <ele>942</ele>
        <time>2014-05-30T09:59:56Z</time>
      </trkpt>
      <trkpt lat="44.30787" lon="3.68196">
        <ele>942</ele>
        <time>2014-05-30T10:00:05Z</time>
      </trkpt>
      <trkpt lat="44.30777" lon="3.682">
        <ele>942</ele>
        <time>2014-05-30T10:00:14Z</time>
      </trkpt>
      <trkpt lat="44.30766" lon="3.68204">
        <ele>942</ele>
        <time>2014-05-30T10:00:24Z</time>
      </trkpt>
      <trkpt lat="44.30756" lon="3.6821">
        <ele>942</ele>
        <time>2014-05-30T10:00:33Z</time>
      </trkpt>
      <trkpt lat="44.30749" lon="3.68216">
        <ele>942</ele>
        <time>2014-05-30T10:00:42Z</time>
      </trkpt>
      <trkpt lat="44.30743" lon="3.68227">
        <ele>942</ele>
        <time>2014-05-30T10:00:52Z</time>
      </trkpt>
      <trkpt lat="44.30739" lon="3.6823">
        <ele>942</ele>
        <time>2014-05-30T10:01:09Z</time>
      </trkpt>
      <trkpt lat="44.30732" lon="3.68238">
        <ele>940</ele>
        <time>2014-05-30T10:01:19Z</time>
      </trkpt>
      <trkpt lat="44.30727" lon="3.68243">
        <ele>939</ele>
        <time>2014-05-30T10:01:35Z</time>
      </trkpt>
      <trkpt lat="44.30719" lon="3.68246">
        <ele>938</ele>
        <time>2014-05-30T10:01:46Z</time>
      </trkpt>
      <trkpt lat="44.30711" lon="3.68255">
        <ele>937</ele>
        <time>2014-05-30T10:01:56Z</time>
      </trkpt>
      <trkpt lat="44.30705" lon="3.6827">
        <ele>936</ele>
        <time>2014-05-30T10:02:06Z</time>
      </trkpt>
      <trkpt lat="44.30699" lon="3.68281">
        <ele>936</ele>
        <time>2014-05-30T10:02:15Z</time>
      </trkpt>
      <trkpt lat="44.30695" lon="3.68286">
        <ele>936</ele>
        <time>2014-05-30T10:02:24Z</time>
      </trkpt>
      <trkpt lat="44.30691" lon="3.68295">
        <ele>936</ele>
        <time>2014-05-30T10:02:34Z</time>
      </trkpt>
      <trkpt lat="44.30684" lon="3.68307">
        <ele>936</ele>
        <time>2014-05-30T10:02:44Z</time>
      </trkpt>
      <trkpt lat="44.30677" lon="3.6832">
        <ele>936</ele>
        <time>2014-05-30T10:02:54Z</time>
      </trkpt>
      <trkpt lat="44.30672" lon="3.68331">
        <ele>936</ele>
        <time>2014-05-30T10:03:03Z</time>
      </trkpt>
      <trkpt lat="44.30665" lon="3.68347">
        <ele>936</ele>
        <time>2014-05-30T10:03:13Z</time>
      </trkpt>
      <trkpt lat="44.30663" lon="3.68354">
        <ele>936</ele>
        <time>2014-05-30T10:03:26Z</time>
      </trkpt>
      <trkpt lat="44.30656" lon="3.68363">
        <ele>936</ele>
        <time>2014-05-30T10:03:36Z</time>
      </trkpt>
      <trkpt lat="44.30653" lon="3.68365">
        <ele>939</ele>
        <time>2014-05-30T10:03:46Z</time>
      </trkpt>
      <trkpt lat="44.30647" lon="3.68379">
        <ele>939</ele>
        <time>2014-05-30T10:03:55Z</time>
      </trkpt>
      <trkpt lat="44.30637" lon="3.6839">
        <ele>939</ele>
        <time>2014-05-30T10:04:04Z</time>
      </trkpt>
      <trkpt lat="44.3063" lon="3.68402">
        <ele>939</ele>
        <time>2014-05-30T10:04:14Z</time>
      </trkpt>
      <trkpt lat="44.30622" lon="3.68412">
        <ele>939</ele>
        <time>2014-05-30T10:04:24Z</time>
      </trkpt>
      <trkpt lat="44.30619" lon="3.68419">
        <ele>939</ele>
        <time>2014-05-30T10:04:33Z</time>
      </trkpt>
      <trkpt lat="44.30614" lon="3.68426">
        <ele>939</ele>
        <time>2014-05-30T10:04:44Z</time>
      </trkpt>
      <trkpt lat="44.30605" lon="3.68438">
        <ele>939</ele>
        <time>2014-05-30T10:04:53Z</time>
      </trkpt>
      <trkpt lat="44.30597" lon="3.68449">
        <ele>939</ele>
        <time>2014-05-30T10:05:02Z</time>
      </trkpt>
      <trkpt lat="44.30589" lon="3.6846">
        <ele>939</ele>
        <time>2014-05-30T10:05:11Z</time>
      </trkpt>
      <trkpt lat="44.30579" lon="3.6847">
        <ele>939</ele>
        <time>2014-05-30T10:05:21Z</time>
      </trkpt>
      <trkpt lat="44.30573" lon="3.68478">
        <ele>939</ele>
        <time>2014-05-30T10:05:31Z</time>
      </trkpt>
      <trkpt lat="44.30569" lon="3.68482">
        <ele>939</ele>
        <time>2014-05-30T10:05:40Z</time>
      </trkpt>
      <trkpt lat="44.3056" lon="3.68493">
        <ele>940</ele>
        <time>2014-05-30T10:05:50Z</time>
      </trkpt>
      <trkpt lat="44.30552" lon="3.68503">
        <ele>940</ele>
        <time>2014-05-30T10:05:59Z</time>
      </trkpt>
      <trkpt lat="44.30545" lon="3.68512">
        <ele>940</ele>
        <time>2014-05-30T10:06:08Z</time>
      </trkpt>
      <trkpt lat="44.30536" lon="3.68521">
        <ele>941</ele>
        <time>2014-05-30T10:06:19Z</time>
      </trkpt>
      <trkpt lat="44.30528" lon="3.68528">
        <ele>944</ele>
        <time>2014-05-30T10:06:28Z</time>
      </trkpt>
      <trkpt lat="44.30519" lon="3.68536">
        <ele>947</ele>
        <time>2014-05-30T10:06:37Z</time>
      </trkpt>
      <trkpt lat="44.30512" lon="3.68545">
        <ele>948</ele>
        <time>2014-05-30T10:06:47Z</time>
      </trkpt>
      <trkpt lat="44.30505" lon="3.68546">
        <ele>949</ele>
        <time>2014-05-30T10:06:56Z</time>
      </trkpt>
      <trkpt lat="44.30494" lon="3.68543">
        <ele>949</ele>
        <time>2014-05-30T10:07:06Z</time>
      </trkpt>
      <trkpt lat="44.30483" lon="3.68535">
        <ele>949</ele>
        <time>2014-05-30T10:07:15Z</time>
      </trkpt>
      <trkpt lat="44.30472" lon="3.68528">
        <ele>949</ele>
        <time>2014-05-30T10:07:24Z</time>
      </trkpt>
      <trkpt lat="44.30461" lon="3.68518">
        <ele>949</ele>
        <time>2014-05-30T10:07:34Z</time>
      </trkpt>
      <trkpt lat="44.30452" lon="3.68509">
        <ele>949</ele>
        <time>2014-05-30T10:07:43Z</time>
      </trkpt>
      <trkpt lat="44.30444" lon="3.68502">
        <ele>949</ele>
        <time>2014-05-30T10:07:52Z</time>
      </trkpt>
      <trkpt lat="44.30436" lon="3.685">
        <ele>950</ele>
        <time>2014-05-30T10:08:02Z</time>
      </trkpt>
      <trkpt lat="44.30426" lon="3.685">
        <ele>950</ele>
        <time>2014-05-30T10:08:11Z</time>
      </trkpt>
      <trkpt lat="44.30419" lon="3.68502">
        <ele>950</ele>
        <time>2014-05-30T10:08:46Z</time>
      </trkpt>
      <trkpt lat="44.30408" lon="3.68507">
        <ele>950</ele>
        <time>2014-05-30T10:08:55Z</time>
      </trkpt>
      <trkpt lat="44.30398" lon="3.68514">
        <ele>950</ele>
        <time>2014-05-30T10:09:04Z</time>
      </trkpt>
      <trkpt lat="44.3039" lon="3.68525">
        <ele>950</ele>
        <time>2014-05-30T10:09:14Z</time>
      </trkpt>
      <trkpt lat="44.30384" lon="3.68538">
        <ele>950</ele>
        <time>2014-05-30T10:09:23Z</time>
      </trkpt>
      <trkpt lat="44.30381" lon="3.68553">
        <ele>950</ele>
        <time>2014-05-30T10:09:32Z</time>
      </trkpt>
      <trkpt lat="44.30383" lon="3.68569">
        <ele>950</ele>
        <time>2014-05-30T10:09:41Z</time>
      </trkpt>
      <trkpt lat="44.30387" lon="3.68583">
        <ele>951</ele>
        <time>2014-05-30T10:09:50Z</time>
      </trkpt>
      <trkpt lat="44.30393" lon="3.68595">
        <ele>951</ele>
        <time>2014-05-30T10:09:59Z</time>
      </trkpt>
      <trkpt lat="44.30399" lon="3.68608">
        <ele>951</ele>
        <time>2014-05-30T10:10:08Z</time>
      </trkpt>
      <trkpt lat="44.30404" lon="3.68621">
        <ele>951</ele>
        <time>2014-05-30T10:10:17Z</time>
      </trkpt>
      <trkpt lat="44.30412" lon="3.68638">
        <ele>951</ele>
        <time>2014-05-30T10:10:27Z</time>
      </trkpt>
      <trkpt lat="44.30415" lon="3.68651">
        <ele>951</ele>
        <time>2014-05-30T10:10:36Z</time>
      </trkpt>
      <trkpt lat="44.30415" lon="3.68664">
        <ele>951</ele>
        <time>2014-05-30T10:10:45Z</time>
      </trkpt>
      <trkpt lat="44.3041" lon="3.68679">
        <ele>952</ele>
        <time>2014-05-30T10:10:54Z</time>
      </trkpt>
      <trkpt lat="44.30405" lon="3.68697">
        <ele>953</ele>
        <time>2014-05-30T10:11:03Z</time>
      </trkpt>
      <trkpt lat="44.30401" lon="3.68713">
        <ele>953</ele>
        <time>2014-05-30T10:11:12Z</time>
      </trkpt>
      <trkpt lat="44.304" lon="3.68726">
        <ele>954</ele>
        <time>2014-05-30T10:11:23Z</time>
      </trkpt>
      <trkpt lat="44.30402" lon="3.68725">
        <ele>954</ele>
        <time>2014-05-30T10:11:34Z</time>
      </trkpt>
      <trkpt lat="44.30404" lon="3.68724">
        <ele>954</ele>
        <time>2014-05-30T10:11:46Z</time>
      </trkpt>
      <trkpt lat="44.30405" lon="3.68724">
        <ele>954</ele>
        <time>2014-05-30T10:12:04Z</time>
      </trkpt>
      <trkpt lat="44.30406" lon="3.68724">
        <ele>954</ele>
        <time>2014-05-30T10:12:27Z</time>
      </trkpt>
      <trkpt lat="44.30403" lon="3.68732">
        <ele>954</ele>
        <time>2014-05-30T10:12:36Z</time>
      </trkpt>
      <trkpt lat="44.30402" lon="3.68742">
        <ele>954</ele>
        <time>2014-05-30T10:12:46Z</time>
      </trkpt>
      <trkpt lat="44.30401" lon="3.68745">
        <ele>954</ele>
        <time>2014-05-30T10:13:06Z</time>
      </trkpt>
      <trkpt lat="44.30397" lon="3.68758">
        <ele>954</ele>
        <time>2014-05-30T10:13:15Z</time>
      </trkpt>
      <trkpt lat="44.30391" lon="3.68773">
        <ele>954</ele>
        <time>2014-05-30T10:13:25Z</time>
      </trkpt>
      <trkpt lat="44.30384" lon="3.68787">
        <ele>953</ele>
        <time>2014-05-30T10:13:34Z</time>
      </trkpt>
      <trkpt lat="44.30376" lon="3.68796">
        <ele>952</ele>
        <time>2014-05-30T10:13:43Z</time>
      </trkpt>
      <trkpt lat="44.30372" lon="3.68804">
        <ele>952</ele>
        <time>2014-05-30T10:13:52Z</time>
      </trkpt>
      <trkpt lat="44.30364" lon="3.68815">
        <ele>951</ele>
        <time>2014-05-30T10:14:02Z</time>
      </trkpt>
      <trkpt lat="44.30357" lon="3.68826">
        <ele>951</ele>
        <time>2014-05-30T10:14:11Z</time>
      </trkpt>
      <trkpt lat="44.30347" lon="3.68837">
        <ele>950</ele>
        <time>2014-05-30T10:14:20Z</time>
      </trkpt>
      <trkpt lat="44.30345" lon="3.68843">
        <ele>949</ele>
        <time>2014-05-30T10:14:30Z</time>
      </trkpt>
      <trkpt lat="44.30343" lon="3.68845">
        <ele>949</ele>
        <time>2014-05-30T10:14:41Z</time>
      </trkpt>
      <trkpt lat="44.30334" lon="3.68853">
        <ele>949</ele>
        <time>2014-05-30T10:14:50Z</time>
      </trkpt>
      <trkpt lat="44.30323" lon="3.6886">
        <ele>949</ele>
        <time>2014-05-30T10:15:00Z</time>
      </trkpt>
      <trkpt lat="44.30313" lon="3.6887">
        <ele>948</ele>
        <time>2014-05-30T10:15:09Z</time>
      </trkpt>
      <trkpt lat="44.30303" lon="3.68878">
        <ele>946</ele>
        <time>2014-05-30T10:15:19Z</time>
      </trkpt>
      <trkpt lat="44.30293" lon="3.68886">
        <ele>946</ele>
        <time>2014-05-30T10:15:28Z</time>
      </trkpt>
      <trkpt lat="44.30283" lon="3.68898">
        <ele>945</ele>
        <time>2014-05-30T10:15:38Z</time>
      </trkpt>
      <trkpt lat="44.3028" lon="3.68899">
        <ele>945</ele>
        <time>2014-05-30T10:15:48Z</time>
      </trkpt>
      <trkpt lat="44.30279" lon="3.68903">
        <ele>945</ele>
        <time>2014-05-30T10:16:12Z</time>
      </trkpt>
      <trkpt lat="44.30269" lon="3.68917">
        <ele>945</ele>
        <time>2014-05-30T10:16:22Z</time>
      </trkpt>
      <trkpt lat="44.30259" lon="3.68928">
        <ele>945</ele>
        <time>2014-05-30T10:16:32Z</time>
      </trkpt>
      <trkpt lat="44.3025" lon="3.68938">
        <ele>945</ele>
        <time>2014-05-30T10:16:42Z</time>
      </trkpt>
      <trkpt lat="44.30247" lon="3.68941">
        <ele>945</ele>
        <time>2014-05-30T10:16:57Z</time>
      </trkpt>
      <trkpt lat="44.30238" lon="3.68953">
        <ele>945</ele>
        <time>2014-05-30T10:17:07Z</time>
      </trkpt>
      <trkpt lat="44.30231" lon="3.68963">
        <ele>945</ele>
        <time>2014-05-30T10:17:17Z</time>
      </trkpt>
      <trkpt lat="44.30225" lon="3.68973">
        <ele>945</ele>
        <time>2014-05-30T10:17:26Z</time>
      </trkpt>
      <trkpt lat="44.3022" lon="3.68985">
        <ele>945</ele>
        <time>2014-05-30T10:17:35Z</time>
      </trkpt>
      <trkpt lat="44.30215" lon="3.68999">
        <ele>945</ele>
        <time>2014-05-30T10:17:44Z</time>
      </trkpt>
      <trkpt lat="44.30211" lon="3.69012">
        <ele>945</ele>
        <time>2014-05-30T10:17:53Z</time>
      </trkpt>
      <trkpt lat="44.30207" lon="3.69029">
        <ele>945</ele>
        <time>2014-05-30T10:18:02Z</time>
      </trkpt>
      <trkpt lat="44.30203" lon="3.69043">
        <ele>945</ele>
        <time>2014-05-30T10:18:12Z</time>
      </trkpt>
      <trkpt lat="44.30198" lon="3.69056">
        <ele>945</ele>
        <time>2014-05-30T10:18:21Z</time>
      </trkpt>
      <trkpt lat="44.30194" lon="3.69071">
        <ele>945</ele>
        <time>2014-05-30T10:18:30Z</time>
      </trkpt>
      <trkpt lat="44.30193" lon="3.69086">
        <ele>945</ele>
        <time>2014-05-30T10:18:39Z</time>
      </trkpt>
      <trkpt lat="44.30191" lon="3.691">
        <ele>945</ele>
        <time>2014-05-30T10:18:48Z</time>
      </trkpt>
      <trkpt lat="44.3019" lon="3.69114">
        <ele>945</ele>
        <time>2014-05-30T10:18:57Z</time>
      </trkpt>
      <trkpt lat="44.30189" lon="3.69122">
        <ele>945</ele>
        <time>2014-05-30T10:19:06Z</time>
      </trkpt>
      <trkpt lat="44.30189" lon="3.69127">
        <ele>945</ele>
        <time>2014-05-30T10:19:17Z</time>
      </trkpt>
      <trkpt lat="44.30186" lon="3.69137">
        <ele>945</ele>
        <time>2014-05-30T10:19:30Z</time>
      </trkpt>
      <trkpt lat="44.30186" lon="3.69139">
        <ele>945</ele>
        <time>2014-05-30T10:19:40Z</time>
      </trkpt>
      <trkpt lat="44.30183" lon="3.69154">
        <ele>945</ele>
        <time>2014-05-30T10:19:50Z</time>
      </trkpt>
      <trkpt lat="44.30182" lon="3.69168">
        <ele>945</ele>
        <time>2014-05-30T10:20:03Z</time>
      </trkpt>
      <trkpt lat="44.30184" lon="3.69169">
        <ele>945</ele>
        <time>2014-05-30T10:20:14Z</time>
      </trkpt>
      <trkpt lat="44.30187" lon="3.69174">
        <ele>945</ele>
        <time>2014-05-30T10:20:37Z</time>
      </trkpt>
      <trkpt lat="44.30184" lon="3.69187">
        <ele>945</ele>
        <time>2014-05-30T10:20:47Z</time>
      </trkpt>
      <trkpt lat="44.3018" lon="3.69202">
        <ele>945</ele>
        <time>2014-05-30T10:20:56Z</time>
      </trkpt>
      <trkpt lat="44.30175" lon="3.69212">
        <ele>945</ele>
        <time>2014-05-30T10:21:05Z</time>
      </trkpt>
      <trkpt lat="44.30171" lon="3.69222">
        <ele>945</ele>
        <time>2014-05-30T10:21:14Z</time>
      </trkpt>
      <trkpt lat="44.30173" lon="3.69225">
        <ele>945</ele>
        <time>2014-05-30T10:21:26Z</time>
      </trkpt>
      <trkpt lat="44.30165" lon="3.69225">
        <ele>949</ele>
        <time>2014-05-30T10:21:35Z</time>
      </trkpt>
      <trkpt lat="44.3016" lon="3.69239">
        <ele>949</ele>
        <time>2014-05-30T10:21:44Z</time>
      </trkpt>
      <trkpt lat="44.30153" lon="3.6925">
        <ele>949</ele>
        <time>2014-05-30T10:21:53Z</time>
      </trkpt>
      <trkpt lat="44.3014" lon="3.69261">
        <ele>949</ele>
        <time>2014-05-30T10:22:02Z</time>
      </trkpt>
      <trkpt lat="44.30135" lon="3.69273">
        <ele>949</ele>
        <time>2014-05-30T10:22:12Z</time>
      </trkpt>
      <trkpt lat="44.30127" lon="3.69282">
        <ele>950</ele>
        <time>2014-05-30T10:22:21Z</time>
      </trkpt>
      <trkpt lat="44.3012" lon="3.69293">
        <ele>950</ele>
        <time>2014-05-30T10:22:30Z</time>
      </trkpt>
      <trkpt lat="44.30122" lon="3.69297">
        <ele>950</ele>
        <time>2014-05-30T10:22:45Z</time>
      </trkpt>
      <trkpt lat="44.30112" lon="3.69302">
        <ele>950</ele>
        <time>2014-05-30T10:22:54Z</time>
      </trkpt>
      <trkpt lat="44.30104" lon="3.69311">
        <ele>950</ele>
        <time>2014-05-30T10:23:03Z</time>
      </trkpt>
      <trkpt lat="44.30095" lon="3.69314">
        <ele>950</ele>
        <time>2014-05-30T10:23:12Z</time>
      </trkpt>
      <trkpt lat="44.3008" lon="3.6932">
        <ele>953</ele>
        <time>2014-05-30T10:23:22Z</time>
      </trkpt>
      <trkpt lat="44.30077" lon="3.6933">
        <ele>953</ele>
        <time>2014-05-30T10:23:31Z</time>
      </trkpt>
      <trkpt lat="44.30069" lon="3.69334">
        <ele>952</ele>
        <time>2014-05-30T10:23:40Z</time>
      </trkpt>
      <trkpt lat="44.30061" lon="3.69332">
        <ele>950</ele>
        <time>2014-05-30T10:23:49Z</time>
      </trkpt>
      <trkpt lat="44.30052" lon="3.69331">
        <ele>950</ele>
        <time>2014-05-30T10:23:59Z</time>
      </trkpt>
      <trkpt lat="44.3004" lon="3.69325">
        <ele>950</ele>
        <time>2014-05-30T10:24:10Z</time>
      </trkpt>
      <trkpt lat="44.30027" lon="3.69324">
        <ele>950</ele>
        <time>2014-05-30T10:24:20Z</time>
      </trkpt>
      <trkpt lat="44.30024" lon="3.69324">
        <ele>950</ele>
        <time>2014-05-30T10:24:30Z</time>
      </trkpt>
      <trkpt lat="44.30027" lon="3.69323">
        <ele>950</ele>
        <time>2014-05-30T10:24:41Z</time>
      </trkpt>
      <trkpt lat="44.30025" lon="3.69322">
        <ele>950</ele>
        <time>2014-05-30T10:24:52Z</time>
      </trkpt>
      <trkpt lat="44.30015" lon="3.69328">
        <ele>950</ele>
        <time>2014-05-30T10:25:02Z</time>
      </trkpt>
      <trkpt lat="44.30004" lon="3.69332">
        <ele>950</ele>
        <time>2014-05-30T10:25:12Z</time>
      </trkpt>
      <trkpt lat="44.29995" lon="3.69335">
        <ele>953</ele>
        <time>2014-05-30T10:25:21Z</time>
      </trkpt>
      <trkpt lat="44.29995" lon="3.69338">
        <ele>953</ele>
        <time>2014-05-30T10:25:30Z</time>
      </trkpt>
      <trkpt lat="44.2999" lon="3.69332">
        <ele>953</ele>
        <time>2014-05-30T10:25:41Z</time>
      </trkpt>
      <trkpt lat="44.29981" lon="3.69324">
        <ele>952</ele>
        <time>2014-05-30T10:25:51Z</time>
      </trkpt>
      <trkpt lat="44.29973" lon="3.69315">
        <ele>952</ele>
        <time>2014-05-30T10:26:00Z</time>
      </trkpt>
      <trkpt lat="44.29964" lon="3.69303">
        <ele>952</ele>
        <time>2014-05-30T10:26:09Z</time>
      </trkpt>
      <trkpt lat="44.29958" lon="3.69295">
        <ele>952</ele>
        <time>2014-05-30T10:26:18Z</time>
      </trkpt>
      <trkpt lat="44.29956" lon="3.69291">
        <ele>952</ele>
        <time>2014-05-30T10:26:34Z</time>
      </trkpt>
      <trkpt lat="44.29957" lon="3.69291">
        <ele>952</ele>
        <time>2014-05-30T10:26:48Z</time>
      </trkpt>
      <trkpt lat="44.29955" lon="3.69289">
        <ele>952</ele>
        <time>2014-05-30T10:27:05Z</time>
      </trkpt>
      <trkpt lat="44.29948" lon="3.69282">
        <ele>952</ele>
        <time>2014-05-30T10:27:25Z</time>
      </trkpt>
      <trkpt lat="44.29946" lon="3.69282">
        <ele>952</ele>
        <time>2014-05-30T10:27:37Z</time>
      </trkpt>
      <trkpt lat="44.29946" lon="3.69281">
        <ele>952</ele>
        <time>2014-05-30T10:27:53Z</time>
      </trkpt>
      <trkpt lat="44.29943" lon="3.69278">
        <ele>952</ele>
        <time>2014-05-30T10:28:02Z</time>
      </trkpt>
      <trkpt lat="44.29932" lon="3.69273">
        <ele>952</ele>
        <time>2014-05-30T10:28:11Z</time>
      </trkpt>
      <trkpt lat="44.29921" lon="3.69265">
        <ele>952</ele>
        <time>2014-05-30T10:28:20Z</time>
      </trkpt>
      <trkpt lat="44.2991" lon="3.69261">
        <ele>952</ele>
        <time>2014-05-30T10:28:29Z</time>
      </trkpt>
      <trkpt lat="44.299" lon="3.69256">
        <ele>952</ele>
        <time>2014-05-30T10:28:38Z</time>
      </trkpt>
      <trkpt lat="44.2989" lon="3.6925">
        <ele>952</ele>
        <time>2014-05-30T10:28:48Z</time>
      </trkpt>
      <trkpt lat="44.29879" lon="3.69242">
        <ele>952</ele>
        <time>2014-05-30T10:28:57Z</time>
      </trkpt>
      <trkpt lat="44.29869" lon="3.69238">
        <ele>952</ele>
        <time>2014-05-30T10:29:06Z</time>
      </trkpt>
      <trkpt lat="44.29857" lon="3.69236">
        <ele>952</ele>
        <time>2014-05-30T10:29:15Z</time>
      </trkpt>
      <trkpt lat="44.29846" lon="3.69236">
        <ele>952</ele>
        <time>2014-05-30T10:29:24Z</time>
      </trkpt>
      <trkpt lat="44.29836" lon="3.69235">
        <ele>952</ele>
        <time>2014-05-30T10:29:33Z</time>
      </trkpt>
      <trkpt lat="44.29826" lon="3.69233">
        <ele>952</ele>
        <time>2014-05-30T10:29:43Z</time>
      </trkpt>
      <trkpt lat="44.29815" lon="3.6923">
        <ele>952</ele>
        <time>2014-05-30T10:29:53Z</time>
      </trkpt>
      <trkpt lat="44.29804" lon="3.69225">
        <ele>952</ele>
        <time>2014-05-30T10:30:02Z</time>
      </trkpt>
      <trkpt lat="44.29793" lon="3.69221">
        <ele>952</ele>
        <time>2014-05-30T10:30:11Z</time>
      </trkpt>
      <trkpt lat="44.29784" lon="3.69219">
        <ele>954</ele>
        <time>2014-05-30T10:30:20Z</time>
      </trkpt>
      <trkpt lat="44.29773" lon="3.69221">
        <ele>954</ele>
        <time>2014-05-30T10:30:30Z</time>
      </trkpt>
      <trkpt lat="44.29761" lon="3.69225">
        <ele>954</ele>
        <time>2014-05-30T10:30:40Z</time>
      </trkpt>
      <trkpt lat="44.2975" lon="3.69222">
        <ele>954</ele>
        <time>2014-05-30T10:30:49Z</time>
      </trkpt>
      <trkpt lat="44.2974" lon="3.6922">
        <ele>954</ele>
        <time>2014-05-30T10:30:58Z</time>
      </trkpt>
      <trkpt lat="44.2973" lon="3.69219">
        <ele>954</ele>
        <time>2014-05-30T10:31:07Z</time>
      </trkpt>
      <trkpt lat="44.29718" lon="3.69219">
        <ele>954</ele>
        <time>2014-05-30T10:31:17Z</time>
      </trkpt>
      <trkpt lat="44.29708" lon="3.69219">
        <ele>954</ele>
        <time>2014-05-30T10:31:26Z</time>
      </trkpt>
      <trkpt lat="44.29697" lon="3.69217">
        <ele>954</ele>
        <time>2014-05-30T10:31:35Z</time>
      </trkpt>
      <trkpt lat="44.29686" lon="3.69217">
        <ele>955</ele>
        <time>2014-05-30T10:31:45Z</time>
      </trkpt>
      <trkpt lat="44.29683" lon="3.69218">
        <ele>956</ele>
        <time>2014-05-30T10:31:54Z</time>
      </trkpt>
      <trkpt lat="44.29682" lon="3.69219">
        <ele>959</ele>
        <time>2014-05-30T10:32:36Z</time>
      </trkpt>
      <trkpt lat="44.29679" lon="3.69218">
        <ele>960</ele>
        <time>2014-05-30T10:32:55Z</time>
      </trkpt>
      <trkpt lat="44.29669" lon="3.69219">
        <ele>960</ele>
        <time>2014-05-30T10:33:05Z</time>
      </trkpt>
      <trkpt lat="44.29659" lon="3.6922">
        <ele>961</ele>
        <time>2014-05-30T10:33:14Z</time>
      </trkpt>
      <trkpt lat="44.29648" lon="3.69222">
        <ele>962</ele>
        <time>2014-05-30T10:33:23Z</time>
      </trkpt>
      <trkpt lat="44.29637" lon="3.69225">
        <ele>963</ele>
        <time>2014-05-30T10:33:32Z</time>
      </trkpt>
      <trkpt lat="44.29627" lon="3.69228">
        <ele>963</ele>
        <time>2014-05-30T10:33:41Z</time>
      </trkpt>
      <trkpt lat="44.29617" lon="3.6923">
        <ele>963</ele>
        <time>2014-05-30T10:33:50Z</time>
      </trkpt>
      <trkpt lat="44.29606" lon="3.69232">
        <ele>963</ele>
        <time>2014-05-30T10:33:59Z</time>
      </trkpt>
      <trkpt lat="44.29594" lon="3.69236">
        <ele>963</ele>
        <time>2014-05-30T10:34:08Z</time>
      </trkpt>
      <trkpt lat="44.29583" lon="3.69236">
        <ele>963</ele>
        <time>2014-05-30T10:34:17Z</time>
      </trkpt>
      <trkpt lat="44.29573" lon="3.69237">
        <ele>963</ele>
        <time>2014-05-30T10:34:26Z</time>
      </trkpt>
      <trkpt lat="44.29563" lon="3.69243">
        <ele>963</ele>
        <time>2014-05-30T10:34:36Z</time>
      </trkpt>
      <trkpt lat="44.29555" lon="3.69252">
        <ele>965</ele>
        <time>2014-05-30T10:34:45Z</time>
      </trkpt>
      <trkpt lat="44.29549" lon="3.69264">
        <ele>965</ele>
        <time>2014-05-30T10:34:54Z</time>
      </trkpt>
      <trkpt lat="44.29546" lon="3.69279">
        <ele>966</ele>
        <time>2014-05-30T10:35:03Z</time>
      </trkpt>
      <trkpt lat="44.29544" lon="3.69291">
        <ele>966</ele>
        <time>2014-05-30T10:35:12Z</time>
      </trkpt>
      <trkpt lat="44.29541" lon="3.69305">
        <ele>966</ele>
        <time>2014-05-30T10:35:21Z</time>
      </trkpt>
      <trkpt lat="44.29537" lon="3.69321">
        <ele>967</ele>
        <time>2014-05-30T10:35:30Z</time>
      </trkpt>
      <trkpt lat="44.29538" lon="3.69334">
        <ele>967</ele>
        <time>2014-05-30T10:35:39Z</time>
      </trkpt>
      <trkpt lat="44.29532" lon="3.69349">
        <ele>967</ele>
        <time>2014-05-30T10:35:48Z</time>
      </trkpt>
      <trkpt lat="44.29528" lon="3.69366">
        <ele>967</ele>
        <time>2014-05-30T10:35:57Z</time>
      </trkpt>
      <trkpt lat="44.2952" lon="3.6938">
        <ele>967</ele>
        <time>2014-05-30T10:36:07Z</time>
      </trkpt>
      <trkpt lat="44.29512" lon="3.69389">
        <ele>968</ele>
        <time>2014-05-30T10:36:16Z</time>
      </trkpt>
      <trkpt lat="44.29504" lon="3.69397">
        <ele>969</ele>
        <time>2014-05-30T10:36:25Z</time>
      </trkpt>
      <trkpt lat="44.29495" lon="3.69405">
        <ele>970</ele>
        <time>2014-05-30T10:36:34Z</time>
      </trkpt>
      <trkpt lat="44.29486" lon="3.69416">
        <ele>971</ele>
        <time>2014-05-30T10:36:43Z</time>
      </trkpt>
      <trkpt lat="44.29479" lon="3.69426">
        <ele>972</ele>
        <time>2014-05-30T10:36:52Z</time>
      </trkpt>
      <trkpt lat="44.29473" lon="3.69439">
        <ele>973</ele>
        <time>2014-05-30T10:37:01Z</time>
      </trkpt>
      <trkpt lat="44.29465" lon="3.69451">
        <ele>974</ele>
        <time>2014-05-30T10:37:10Z</time>
      </trkpt>
      <trkpt lat="44.29457" lon="3.69463">
        <ele>974</ele>
        <time>2014-05-30T10:37:19Z</time>
      </trkpt>
      <trkpt lat="44.29449" lon="3.69475">
        <ele>974</ele>
        <time>2014-05-30T10:37:28Z</time>
      </trkpt>
      <trkpt lat="44.29438" lon="3.69486">
        <ele>974</ele>
        <time>2014-05-30T10:37:38Z</time>
      </trkpt>
      <trkpt lat="44.29427" lon="3.69496">
        <ele>974</ele>
        <time>2014-05-30T10:37:47Z</time>
      </trkpt>
      <trkpt lat="44.29419" lon="3.69504">
        <ele>974</ele>
        <time>2014-05-30T10:37:56Z</time>
      </trkpt>
      <trkpt lat="44.2941" lon="3.69512">
        <ele>972</ele>
        <time>2014-05-30T10:38:05Z</time>
      </trkpt>
      <trkpt lat="44.29398" lon="3.69521">
        <ele>971</ele>
        <time>2014-05-30T10:38:14Z</time>
      </trkpt>
      <trkpt lat="44.29385" lon="3.69531">
        <ele>971</ele>
        <time>2014-05-30T10:38:24Z</time>
      </trkpt>
      <trkpt lat="44.29377" lon="3.69541">
        <ele>971</ele>
        <time>2014-05-30T10:38:33Z</time>
      </trkpt>
      <trkpt lat="44.2937" lon="3.69552">
        <ele>970</ele>
        <time>2014-05-30T10:38:42Z</time>
      </trkpt>
      <trkpt lat="44.29361" lon="3.69562">
        <ele>968</ele>
        <time>2014-05-30T10:38:51Z</time>
      </trkpt>
      <trkpt lat="44.29351" lon="3.69571">
        <ele>968</ele>
        <time>2014-05-30T10:39:00Z</time>
      </trkpt>
      <trkpt lat="44.2934" lon="3.69582">
        <ele>968</ele>
        <time>2014-05-30T10:39:09Z</time>
      </trkpt>
      <trkpt lat="44.2933" lon="3.69594">
        <ele>968</ele>
        <time>2014-05-30T10:39:18Z</time>
      </trkpt>
      <trkpt lat="44.29321" lon="3.69606">
        <ele>967</ele>
        <time>2014-05-30T10:39:27Z</time>
      </trkpt>
      <trkpt lat="44.29313" lon="3.6962">
        <ele>967</ele>
        <time>2014-05-30T10:39:37Z</time>
      </trkpt>
      <trkpt lat="44.29303" lon="3.6963">
        <ele>967</ele>
        <time>2014-05-30T10:39:46Z</time>
      </trkpt>
      <trkpt lat="44.29291" lon="3.69638">
        <ele>967</ele>
        <time>2014-05-30T10:39:56Z</time>
      </trkpt>
      <trkpt lat="44.29283" lon="3.69646">
        <ele>967</ele>
        <time>2014-05-30T10:40:05Z</time>
      </trkpt>
      <trkpt lat="44.29274" lon="3.69655">
        <ele>966</ele>
        <time>2014-05-30T10:40:14Z</time>
      </trkpt>
      <trkpt lat="44.29266" lon="3.69666">
        <ele>966</ele>
        <time>2014-05-30T10:40:23Z</time>
      </trkpt>
      <trkpt lat="44.29261" lon="3.69679">
        <ele>964</ele>
        <time>2014-05-30T10:40:32Z</time>
      </trkpt>
      <trkpt lat="44.29257" lon="3.69691">
        <ele>961</ele>
        <time>2014-05-30T10:40:42Z</time>
      </trkpt>
      <trkpt lat="44.29255" lon="3.69704">
        <ele>960</ele>
        <time>2014-05-30T10:40:51Z</time>
      </trkpt>
      <trkpt lat="44.29256" lon="3.6972">
        <ele>960</ele>
        <time>2014-05-30T10:41:00Z</time>
      </trkpt>
      <trkpt lat="44.29257" lon="3.69738">
        <ele>958</ele>
        <time>2014-05-30T10:41:09Z</time>
      </trkpt>
      <trkpt lat="44.29257" lon="3.69754">
        <ele>956</ele>
        <time>2014-05-30T10:41:18Z</time>
      </trkpt>
      <trkpt lat="44.29258" lon="3.69772">
        <ele>956</ele>
        <time>2014-05-30T10:41:27Z</time>
      </trkpt>
      <trkpt lat="44.29259" lon="3.69787">
        <ele>956</ele>
        <time>2014-05-30T10:41:36Z</time>
      </trkpt>
      <trkpt lat="44.29259" lon="3.69804">
        <ele>955</ele>
        <time>2014-05-30T10:41:45Z</time>
      </trkpt>
      <trkpt lat="44.2926" lon="3.6982">
        <ele>954</ele>
        <time>2014-05-30T10:41:54Z</time>
      </trkpt>
      <trkpt lat="44.29263" lon="3.69837">
        <ele>953</ele>
        <time>2014-05-30T10:42:04Z</time>
      </trkpt>
      <trkpt lat="44.29266" lon="3.69849">
        <ele>953</ele>
        <time>2014-05-30T10:42:14Z</time>
      </trkpt>
      <trkpt lat="44.29272" lon="3.69864">
        <ele>953</ele>
        <time>2014-05-30T10:42:23Z</time>
      </trkpt>
      <trkpt lat="44.2928" lon="3.6988">
        <ele>953</ele>
        <time>2014-05-30T10:42:32Z</time>
      </trkpt>
      <trkpt lat="44.29285" lon="3.69894">
        <ele>953</ele>
        <time>2014-05-30T10:42:42Z</time>
      </trkpt>
      <trkpt lat="44.29289" lon="3.69907">
        <ele>955</ele>
        <time>2014-05-30T10:42:51Z</time>
      </trkpt>
      <trkpt lat="44.29293" lon="3.69922">
        <ele>956</ele>
        <time>2014-05-30T10:43:00Z</time>
      </trkpt>
      <trkpt lat="44.29287" lon="3.69935">
        <ele>958</ele>
        <time>2014-05-30T10:43:09Z</time>
      </trkpt>
      <trkpt lat="44.29279" lon="3.69946">
        <ele>960</ele>
        <time>2014-05-30T10:43:19Z</time>
      </trkpt>
      <trkpt lat="44.29267" lon="3.69951">
        <ele>960</ele>
        <time>2014-05-30T10:43:29Z</time>
      </trkpt>
      <trkpt lat="44.29254" lon="3.69957">
        <ele>960</ele>
        <time>2014-05-30T10:43:38Z</time>
      </trkpt>
      <trkpt lat="44.29248" lon="3.69968">
        <ele>960</ele>
        <time>2014-05-30T10:43:48Z</time>
      </trkpt>
      <trkpt lat="44.29243" lon="3.69978">
        <ele>960</ele>
        <time>2014-05-30T10:43:57Z</time>
      </trkpt>
      <trkpt lat="44.29236" lon="3.69987">
        <ele>960</ele>
        <time>2014-05-30T10:44:07Z</time>
      </trkpt>
      <trkpt lat="44.29227" lon="3.69993">
        <ele>964</ele>
        <time>2014-05-30T10:44:16Z</time>
      </trkpt>
      <trkpt lat="44.29216" lon="3.69998">
        <ele>973</ele>
        <time>2014-05-30T10:44:26Z</time>
      </trkpt>
      <trkpt lat="44.2921" lon="3.7001">
        <ele>976</ele>
        <time>2014-05-30T10:44:36Z</time>
      </trkpt>
      <trkpt lat="44.29203" lon="3.70023">
        <ele>976</ele>
        <time>2014-05-30T10:44:45Z</time>
      </trkpt>
      <trkpt lat="44.29195" lon="3.70034">
        <ele>976</ele>
        <time>2014-05-30T10:44:54Z</time>
      </trkpt>
      <trkpt lat="44.29185" lon="3.70045">
        <ele>976</ele>
        <time>2014-05-30T10:45:03Z</time>
      </trkpt>
      <trkpt lat="44.29171" lon="3.70055">
        <ele>983</ele>
        <time>2014-05-30T10:45:12Z</time>
      </trkpt>
      <trkpt lat="44.29166" lon="3.70058">
        <ele>985</ele>
        <time>2014-05-30T10:45:21Z</time>
      </trkpt>
      <trkpt lat="44.29154" lon="3.70063">
        <ele>985</ele>
        <time>2014-05-30T10:45:30Z</time>
      </trkpt>
      <trkpt lat="44.29145" lon="3.70075">
        <ele>985</ele>
        <time>2014-05-30T10:45:39Z</time>
      </trkpt>
      <trkpt lat="44.2914" lon="3.70092">
        <ele>979</ele>
        <time>2014-05-30T10:45:49Z</time>
      </trkpt>
      <trkpt lat="44.29132" lon="3.70102">
        <ele>977</ele>
        <time>2014-05-30T10:45:58Z</time>
      </trkpt>
      <trkpt lat="44.29123" lon="3.70106">
        <ele>976</ele>
        <time>2014-05-30T10:46:07Z</time>
      </trkpt>
      <trkpt lat="44.29109" lon="3.70111">
        <ele>974</ele>
        <time>2014-05-30T10:46:16Z</time>
      </trkpt>
      <trkpt lat="44.29097" lon="3.70118">
        <ele>974</ele>
        <time>2014-05-30T10:46:25Z</time>
      </trkpt>
      <trkpt lat="44.29086" lon="3.70122">
        <ele>979</ele>
        <time>2014-05-30T10:46:34Z</time>
      </trkpt>
      <trkpt lat="44.29075" lon="3.70121">
        <ele>980</ele>
        <time>2014-05-30T10:46:43Z</time>
      </trkpt>
      <trkpt lat="44.2906" lon="3.70123">
        <ele>983</ele>
        <time>2014-05-30T10:46:52Z</time>
      </trkpt>
      <trkpt lat="44.29051" lon="3.70126">
        <ele>984</ele>
        <time>2014-05-30T10:47:01Z</time>
      </trkpt>
      <trkpt lat="44.29043" lon="3.70132">
        <ele>981</ele>
        <time>2014-05-30T10:47:11Z</time>
      </trkpt>
      <trkpt lat="44.29033" lon="3.70132">
        <ele>975</ele>
        <time>2014-05-30T10:47:21Z</time>
      </trkpt>
      <trkpt lat="44.29022" lon="3.70131">
        <ele>973</ele>
        <time>2014-05-30T10:47:30Z</time>
      </trkpt>
      <trkpt lat="44.29011" lon="3.70128">
        <ele>968</ele>
        <time>2014-05-30T10:47:39Z</time>
      </trkpt>
      <trkpt lat="44.28999" lon="3.70128">
        <ele>967</ele>
        <time>2014-05-30T10:47:49Z</time>
      </trkpt>
      <trkpt lat="44.28988" lon="3.70134">
        <ele>967</ele>
        <time>2014-05-30T10:47:59Z</time>
      </trkpt>
      <trkpt lat="44.28978" lon="3.70136">
        <ele>967</ele>
        <time>2014-05-30T10:48:08Z</time>
      </trkpt>
      <trkpt lat="44.28978" lon="3.70133">
        <ele>970</ele>
        <time>2014-05-30T10:48:17Z</time>
      </trkpt>
      <trkpt lat="44.28991" lon="3.70133">
        <ele>972</ele>
        <time>2014-05-30T10:48:26Z</time>
      </trkpt>
      <trkpt lat="44.29002" lon="3.70132">
        <ele>972</ele>
        <time>2014-05-30T10:48:35Z</time>
      </trkpt>
      <trkpt lat="44.29014" lon="3.70134">
        <ele>972</ele>
        <time>2014-05-30T10:48:44Z</time>
      </trkpt>
      <trkpt lat="44.29026" lon="3.70137">
        <ele>972</ele>
        <time>2014-05-30T10:48:54Z</time>
      </trkpt>
      <trkpt lat="44.29032" lon="3.70133">
        <ele>973</ele>
        <time>2014-05-30T10:49:03Z</time>
      </trkpt>
      <trkpt lat="44.29047" lon="3.70131">
        <ele>979</ele>
        <time>2014-05-30T10:49:12Z</time>
      </trkpt>
      <trkpt lat="44.29057" lon="3.70129">
        <ele>981</ele>
        <time>2014-05-30T10:49:21Z</time>
      </trkpt>
      <trkpt lat="44.29067" lon="3.70127">
        <ele>983</ele>
        <time>2014-05-30T10:49:30Z</time>
      </trkpt>
      <trkpt lat="44.29078" lon="3.70125">
        <ele>983</ele>
        <time>2014-05-30T10:49:39Z</time>
      </trkpt>
      <trkpt lat="44.29089" lon="3.7012">
        <ele>984</ele>
        <time>2014-05-30T10:49:48Z</time>
      </trkpt>
      <trkpt lat="44.29102" lon="3.70113">
        <ele>984</ele>
        <time>2014-05-30T10:49:57Z</time>
      </trkpt>
      <trkpt lat="44.29117" lon="3.70108">
        <ele>983</ele>
        <time>2014-05-30T10:50:06Z</time>
      </trkpt>
      <trkpt lat="44.29131" lon="3.70104">
        <ele>983</ele>
        <time>2014-05-30T10:50:15Z</time>
      </trkpt>
      <trkpt lat="44.29139" lon="3.70094">
        <ele>983</ele>
        <time>2014-05-30T10:50:24Z</time>
      </trkpt>
      <trkpt lat="44.29149" lon="3.70085">
        <ele>982</ele>
        <time>2014-05-30T10:50:33Z</time>
      </trkpt>
      <trkpt lat="44.29158" lon="3.70078">
        <ele>979</ele>
        <time>2014-05-30T10:50:42Z</time>
      </trkpt>
      <trkpt lat="44.2917" lon="3.70062">
        <ele>978</ele>
        <time>2014-05-30T10:50:52Z</time>
      </trkpt>
      <trkpt lat="44.29178" lon="3.70048">
        <ele>983</ele>
        <time>2014-05-30T10:51:01Z</time>
      </trkpt>
      <trkpt lat="44.29187" lon="3.70038">
        <ele>987</ele>
        <time>2014-05-30T10:51:10Z</time>
      </trkpt>
      <trkpt lat="44.29193" lon="3.70023">
        <ele>987</ele>
        <time>2014-05-30T10:51:19Z</time>
      </trkpt>
      <trkpt lat="44.29209" lon="3.70017">
        <ele>983</ele>
        <time>2014-05-30T10:51:28Z</time>
      </trkpt>
      <trkpt lat="44.29223" lon="3.70011">
        <ele>978</ele>
        <time>2014-05-30T10:51:38Z</time>
      </trkpt>
      <trkpt lat="44.29238" lon="3.70006">
        <ele>971</ele>
        <time>2014-05-30T10:51:47Z</time>
      </trkpt>
      <trkpt lat="44.29247" lon="3.69995">
        <ele>965</ele>
        <time>2014-05-30T10:51:56Z</time>
      </trkpt>
      <trkpt lat="44.29252" lon="3.6998">
        <ele>962</ele>
        <time>2014-05-30T10:52:06Z</time>
      </trkpt>
      <trkpt lat="44.29259" lon="3.69968">
        <ele>958</ele>
        <time>2014-05-30T10:52:15Z</time>
      </trkpt>
      <trkpt lat="44.29267" lon="3.69961">
        <ele>957</ele>
        <time>2014-05-30T10:52:24Z</time>
      </trkpt>
      <trkpt lat="44.29279" lon="3.69955">
        <ele>955</ele>
        <time>2014-05-30T10:52:33Z</time>
      </trkpt>
      <trkpt lat="44.29288" lon="3.69946">
        <ele>955</ele>
        <time>2014-05-30T10:52:42Z</time>
      </trkpt>
      <trkpt lat="44.2929" lon="3.69923">
        <ele>957</ele>
        <time>2014-05-30T10:52:51Z</time>
      </trkpt>
      <trkpt lat="44.29293" lon="3.69912">
        <ele>961</ele>
        <time>2014-05-30T10:53:01Z</time>
      </trkpt>
      <trkpt lat="44.29291" lon="3.69896">
        <ele>961</ele>
        <time>2014-05-30T10:53:10Z</time>
      </trkpt>
      <trkpt lat="44.29285" lon="3.6988">
        <ele>960</ele>
        <time>2014-05-30T10:53:19Z</time>
      </trkpt>
      <trkpt lat="44.29282" lon="3.69867">
        <ele>957</ele>
        <time>2014-05-30T10:53:28Z</time>
      </trkpt>
      <trkpt lat="44.29272" lon="3.6985">
        <ele>956</ele>
        <time>2014-05-30T10:53:37Z</time>
      </trkpt>
      <trkpt lat="44.29268" lon="3.69835">
        <ele>956</ele>
        <time>2014-05-30T10:53:46Z</time>
      </trkpt>
      <trkpt lat="44.29265" lon="3.69817">
        <ele>956</ele>
        <time>2014-05-30T10:53:56Z</time>
      </trkpt>
      <trkpt lat="44.29268" lon="3.69798">
        <ele>956</ele>
        <time>2014-05-30T10:54:06Z</time>
      </trkpt>
      <trkpt lat="44.29267" lon="3.69781">
        <ele>956</ele>
        <time>2014-05-30T10:54:15Z</time>
      </trkpt>
      <trkpt lat="44.29266" lon="3.69766">
        <ele>956</ele>
        <time>2014-05-30T10:54:25Z</time>
      </trkpt>
      <trkpt lat="44.29264" lon="3.69749">
        <ele>955</ele>
        <time>2014-05-30T10:54:34Z</time>
      </trkpt>
      <trkpt lat="44.29263" lon="3.69733">
        <ele>954</ele>
        <time>2014-05-30T10:54:43Z</time>
      </trkpt>
      <trkpt lat="44.29261" lon="3.69718">
        <ele>954</ele>
        <time>2014-05-30T10:54:53Z</time>
      </trkpt>
      <trkpt lat="44.2926" lon="3.69706">
        <ele>954</ele>
        <time>2014-05-30T10:55:02Z</time>
      </trkpt>
      <trkpt lat="44.29261" lon="3.69693">
        <ele>957</ele>
        <time>2014-05-30T10:55:11Z</time>
      </trkpt>
      <trkpt lat="44.29266" lon="3.69683">
        <ele>962</ele>
        <time>2014-05-30T10:55:20Z</time>
      </trkpt>
      <trkpt lat="44.29269" lon="3.6967">
        <ele>962</ele>
        <time>2014-05-30T10:55:30Z</time>
      </trkpt>
      <trkpt lat="44.29275" lon="3.6966">
        <ele>962</ele>
        <time>2014-05-30T10:55:40Z</time>
      </trkpt>
      <trkpt lat="44.29281" lon="3.69657">
        <ele>962</ele>
        <time>2014-05-30T10:55:49Z</time>
      </trkpt>
      <trkpt lat="44.2929" lon="3.69649">
        <ele>963</ele>
        <time>2014-05-30T10:55:59Z</time>
      </trkpt>
      <trkpt lat="44.29298" lon="3.69641">
        <ele>965</ele>
        <time>2014-05-30T10:56:08Z</time>
      </trkpt>
      <trkpt lat="44.29307" lon="3.69631">
        <ele>966</ele>
        <time>2014-05-30T10:56:18Z</time>
      </trkpt>
      <trkpt lat="44.29317" lon="3.6962">
        <ele>966</ele>
        <time>2014-05-30T10:56:28Z</time>
      </trkpt>
      <trkpt lat="44.29325" lon="3.69607">
        <ele>966</ele>
        <time>2014-05-30T10:56:51Z</time>
      </trkpt>
      <trkpt lat="44.29333" lon="3.69596">
        <ele>966</ele>
        <time>2014-05-30T10:57:00Z</time>
      </trkpt>
      <trkpt lat="44.29343" lon="3.69585">
        <ele>966</ele>
        <time>2014-05-30T10:57:09Z</time>
      </trkpt>
      <trkpt lat="44.29353" lon="3.69575">
        <ele>966</ele>
        <time>2014-05-30T10:57:18Z</time>
      </trkpt>
      <trkpt lat="44.29363" lon="3.69564">
        <ele>966</ele>
        <time>2014-05-30T10:57:27Z</time>
      </trkpt>
      <trkpt lat="44.29374" lon="3.69553">
        <ele>966</ele>
        <time>2014-05-30T10:57:36Z</time>
      </trkpt>
      <trkpt lat="44.29385" lon="3.69545">
        <ele>966</ele>
        <time>2014-05-30T10:57:45Z</time>
      </trkpt>
      <trkpt lat="44.29396" lon="3.69533">
        <ele>966</ele>
        <time>2014-05-30T10:57:55Z</time>
      </trkpt>
      <trkpt lat="44.29408" lon="3.69524">
        <ele>966</ele>
        <time>2014-05-30T10:58:05Z</time>
      </trkpt>
      <trkpt lat="44.29418" lon="3.69514">
        <ele>966</ele>
        <time>2014-05-30T10:58:14Z</time>
      </trkpt>
      <trkpt lat="44.29427" lon="3.69504">
        <ele>966</ele>
        <time>2014-05-30T10:58:23Z</time>
      </trkpt>
      <trkpt lat="44.29438" lon="3.69496">
        <ele>966</ele>
        <time>2014-05-30T10:58:32Z</time>
      </trkpt>
      <trkpt lat="44.29447" lon="3.69485">
        <ele>966</ele>
        <time>2014-05-30T10:58:41Z</time>
      </trkpt>
      <trkpt lat="44.29457" lon="3.6947">
        <ele>966</ele>
        <time>2014-05-30T10:58:52Z</time>
      </trkpt>
      <trkpt lat="44.29467" lon="3.69456">
        <ele>966</ele>
        <time>2014-05-30T10:59:02Z</time>
      </trkpt>
      <trkpt lat="44.29477" lon="3.69443">
        <ele>967</ele>
        <time>2014-05-30T10:59:12Z</time>
      </trkpt>
      <trkpt lat="44.29483" lon="3.69429">
        <ele>968</ele>
        <time>2014-05-30T10:59:21Z</time>
      </trkpt>
      <trkpt lat="44.29492" lon="3.69414">
        <ele>969</ele>
        <time>2014-05-30T10:59:31Z</time>
      </trkpt>
      <trkpt lat="44.29501" lon="3.69404">
        <ele>969</ele>
        <time>2014-05-30T10:59:40Z</time>
      </trkpt>
      <trkpt lat="44.29514" lon="3.69392">
        <ele>969</ele>
        <time>2014-05-30T10:59:50Z</time>
      </trkpt>
      <trkpt lat="44.29526" lon="3.69383">
        <ele>967</ele>
        <time>2014-05-30T10:59:59Z</time>
      </trkpt>
      <trkpt lat="44.29535" lon="3.69366">
        <ele>966</ele>
        <time>2014-05-30T11:00:08Z</time>
      </trkpt>
      <trkpt lat="44.29541" lon="3.69346">
        <ele>965</ele>
        <time>2014-05-30T11:00:18Z</time>
      </trkpt>
      <trkpt lat="44.29544" lon="3.69326">
        <ele>965</ele>
        <time>2014-05-30T11:00:27Z</time>
      </trkpt>
      <trkpt lat="44.29548" lon="3.69312">
        <ele>965</ele>
        <time>2014-05-30T11:00:36Z</time>
      </trkpt>
      <trkpt lat="44.29552" lon="3.69294">
        <ele>965</ele>
        <time>2014-05-30T11:00:45Z</time>
      </trkpt>
      <trkpt lat="44.29559" lon="3.69277">
        <ele>965</ele>
        <time>2014-05-30T11:00:54Z</time>
      </trkpt>
      <trkpt lat="44.29561" lon="3.6926">
        <ele>965</ele>
        <time>2014-05-30T11:01:04Z</time>
      </trkpt>
      <trkpt lat="44.29571" lon="3.69247">
        <ele>965</ele>
        <time>2014-05-30T11:01:14Z</time>
      </trkpt>
      <trkpt lat="44.29578" lon="3.69241">
        <ele>965</ele>
        <time>2014-05-30T11:01:23Z</time>
      </trkpt>
      <trkpt lat="44.29587" lon="3.69241">
        <ele>963</ele>
        <time>2014-05-30T11:01:32Z</time>
      </trkpt>
      <trkpt lat="44.29598" lon="3.69239">
        <ele>961</ele>
        <time>2014-05-30T11:01:41Z</time>
      </trkpt>
      <trkpt lat="44.2961" lon="3.69234">
        <ele>960</ele>
        <time>2014-05-30T11:01:50Z</time>
      </trkpt>
      <trkpt lat="44.29623" lon="3.69231">
        <ele>960</ele>
        <time>2014-05-30T11:01:59Z</time>
      </trkpt>
      <trkpt lat="44.29636" lon="3.69228">
        <ele>960</ele>
        <time>2014-05-30T11:02:08Z</time>
      </trkpt>
      <trkpt lat="44.29648" lon="3.69224">
        <ele>960</ele>
        <time>2014-05-30T11:02:17Z</time>
      </trkpt>
      <trkpt lat="44.2966" lon="3.69222">
        <ele>960</ele>
        <time>2014-05-30T11:02:26Z</time>
      </trkpt>
      <trkpt lat="44.29671" lon="3.69221">
        <ele>960</ele>
        <time>2014-05-30T11:02:35Z</time>
      </trkpt>
      <trkpt lat="44.29682" lon="3.69215">
        <ele>960</ele>
        <time>2014-05-30T11:02:45Z</time>
      </trkpt>
      <trkpt lat="44.29684" lon="3.69212">
        <ele>960</ele>
        <time>2014-05-30T11:03:29Z</time>
      </trkpt>
      <trkpt lat="44.29685" lon="3.69214">
        <ele>960</ele>
        <time>2014-05-30T11:03:55Z</time>
      </trkpt>
      <trkpt lat="44.29693" lon="3.69217">
        <ele>960</ele>
        <time>2014-05-30T11:04:05Z</time>
      </trkpt>
      <trkpt lat="44.29705" lon="3.69218">
        <ele>960</ele>
        <time>2014-05-30T11:04:14Z</time>
      </trkpt>
      <trkpt lat="44.29715" lon="3.69218">
        <ele>960</ele>
        <time>2014-05-30T11:04:26Z</time>
      </trkpt>
      <trkpt lat="44.29725" lon="3.69223">
        <ele>960</ele>
        <time>2014-05-30T11:04:35Z</time>
      </trkpt>
      <trkpt lat="44.29736" lon="3.69225">
        <ele>960</ele>
        <time>2014-05-30T11:04:44Z</time>
      </trkpt>
      <trkpt lat="44.29747" lon="3.69228">
        <ele>960</ele>
        <time>2014-05-30T11:04:53Z</time>
      </trkpt>
      <trkpt lat="44.29758" lon="3.69229">
        <ele>960</ele>
        <time>2014-05-30T11:05:02Z</time>
      </trkpt>
      <trkpt lat="44.29775" lon="3.69226">
        <ele>960</ele>
        <time>2014-05-30T11:05:11Z</time>
      </trkpt>
      <trkpt lat="44.29787" lon="3.69224">
        <ele>960</ele>
        <time>2014-05-30T11:05:20Z</time>
      </trkpt>
      <trkpt lat="44.29799" lon="3.69229">
        <ele>957</ele>
        <time>2014-05-30T11:05:30Z</time>
      </trkpt>
      <trkpt lat="44.29811" lon="3.69234">
        <ele>956</ele>
        <time>2014-05-30T11:05:39Z</time>
      </trkpt>
      <trkpt lat="44.29824" lon="3.69237">
        <ele>956</ele>
        <time>2014-05-30T11:05:48Z</time>
      </trkpt>
      <trkpt lat="44.29836" lon="3.69239">
        <ele>956</ele>
        <time>2014-05-30T11:05:57Z</time>
      </trkpt>
      <trkpt lat="44.29848" lon="3.69239">
        <ele>956</ele>
        <time>2014-05-30T11:06:06Z</time>
      </trkpt>
      <trkpt lat="44.29863" lon="3.69241">
        <ele>956</ele>
        <time>2014-05-30T11:06:15Z</time>
      </trkpt>
      <trkpt lat="44.29875" lon="3.69245">
        <ele>956</ele>
        <time>2014-05-30T11:06:24Z</time>
      </trkpt>
      <trkpt lat="44.29886" lon="3.69255">
        <ele>956</ele>
        <time>2014-05-30T11:06:33Z</time>
      </trkpt>
      <trkpt lat="44.29898" lon="3.69262">
        <ele>955</ele>
        <time>2014-05-30T11:06:42Z</time>
      </trkpt>
      <trkpt lat="44.29908" lon="3.69265">
        <ele>955</ele>
        <time>2014-05-30T11:06:51Z</time>
      </trkpt>
      <trkpt lat="44.29918" lon="3.69271">
        <ele>954</ele>
        <time>2014-05-30T11:07:00Z</time>
      </trkpt>
      <trkpt lat="44.29931" lon="3.69277">
        <ele>954</ele>
        <time>2014-05-30T11:07:09Z</time>
      </trkpt>
      <trkpt lat="44.29941" lon="3.69285">
        <ele>952</ele>
        <time>2014-05-30T11:07:18Z</time>
      </trkpt>
      <trkpt lat="44.29951" lon="3.69295">
        <ele>950</ele>
        <time>2014-05-30T11:07:27Z</time>
      </trkpt>
      <trkpt lat="44.2996" lon="3.69306">
        <ele>949</ele>
        <time>2014-05-30T11:07:36Z</time>
      </trkpt>
      <trkpt lat="44.2997" lon="3.69318">
        <ele>948</ele>
        <time>2014-05-30T11:07:45Z</time>
      </trkpt>
      <trkpt lat="44.2998" lon="3.69329">
        <ele>945</ele>
        <time>2014-05-30T11:07:55Z</time>
      </trkpt>
      <trkpt lat="44.29991" lon="3.69336">
        <ele>944</ele>
        <time>2014-05-30T11:08:04Z</time>
      </trkpt>
      <trkpt lat="44.30004" lon="3.69329">
        <ele>944</ele>
        <time>2014-05-30T11:08:14Z</time>
      </trkpt>
      <trkpt lat="44.30016" lon="3.69323">
        <ele>945</ele>
        <time>2014-05-30T11:08:23Z</time>
      </trkpt>
      <trkpt lat="44.30027" lon="3.69316">
        <ele>949</ele>
        <time>2014-05-30T11:08:32Z</time>
      </trkpt>
      <trkpt lat="44.30028" lon="3.69313">
        <ele>950</ele>
        <time>2014-05-30T11:08:42Z</time>
      </trkpt>
      <trkpt lat="44.30029" lon="3.69315">
        <ele>948</ele>
        <time>2014-05-30T11:08:56Z</time>
      </trkpt>
      <trkpt lat="44.30022" lon="3.69306">
        <ele>947</ele>
        <time>2014-05-30T11:09:06Z</time>
      </trkpt>
      <trkpt lat="44.30018" lon="3.69302">
        <ele>947</ele>
        <time>2014-05-30T11:09:15Z</time>
      </trkpt>
      <trkpt lat="44.30011" lon="3.69298">
        <ele>945</ele>
        <time>2014-05-30T11:09:24Z</time>
      </trkpt>
      <trkpt lat="44.30002" lon="3.69293">
        <ele>945</ele>
        <time>2014-05-30T11:09:35Z</time>
      </trkpt>
      <trkpt lat="44.29994" lon="3.69298">
        <ele>945</ele>
        <time>2014-05-30T11:09:44Z</time>
      </trkpt>
      <trkpt lat="44.2999" lon="3.69297">
        <ele>945</ele>
        <time>2014-05-30T11:09:53Z</time>
      </trkpt>
      <trkpt lat="44.29986" lon="3.69289">
        <ele>944</ele>
        <time>2014-05-30T11:10:03Z</time>
      </trkpt>
      <trkpt lat="44.29986" lon="3.69277">
        <ele>940</ele>
        <time>2014-05-30T11:10:12Z</time>
      </trkpt>
      <trkpt lat="44.29987" lon="3.6926">
        <ele>937</ele>
        <time>2014-05-30T11:10:23Z</time>
      </trkpt>
      <trkpt lat="44.29981" lon="3.69252">
        <ele>935</ele>
        <time>2014-05-30T11:10:32Z</time>
      </trkpt>
      <trkpt lat="44.29974" lon="3.69237">
        <ele>933</ele>
        <time>2014-05-30T11:10:43Z</time>
      </trkpt>
      <trkpt lat="44.29969" lon="3.69224">
        <ele>933</ele>
        <time>2014-05-30T11:10:52Z</time>
      </trkpt>
      <trkpt lat="44.29966" lon="3.69212">
        <ele>932</ele>
        <time>2014-05-30T11:11:02Z</time>
      </trkpt>
      <trkpt lat="44.29963" lon="3.692">
        <ele>930</ele>
        <time>2014-05-30T11:11:12Z</time>
      </trkpt>
      <trkpt lat="44.29961" lon="3.69189">
        <ele>927</ele>
        <time>2014-05-30T11:11:21Z</time>
      </trkpt>
      <trkpt lat="44.29953" lon="3.69178">
        <ele>924</ele>
        <time>2014-05-30T11:11:32Z</time>
      </trkpt>
      <trkpt lat="44.29947" lon="3.6917">
        <ele>919</ele>
        <time>2014-05-30T11:11:42Z</time>
      </trkpt>
      <trkpt lat="44.2994" lon="3.69166">
        <ele>914</ele>
        <time>2014-05-30T11:11:52Z</time>
      </trkpt>
      <trkpt lat="44.29934" lon="3.69159">
        <ele>911</ele>
        <time>2014-05-30T11:12:02Z</time>
      </trkpt>
      <trkpt lat="44.29929" lon="3.69153">
        <ele>909</ele>
        <time>2014-05-30T11:12:12Z</time>
      </trkpt>
      <trkpt lat="44.29924" lon="3.69145">
        <ele>909</ele>
        <time>2014-05-30T11:12:21Z</time>
      </trkpt>
      <trkpt lat="44.29921" lon="3.6913">
        <ele>911</ele>
        <time>2014-05-30T11:12:31Z</time>
      </trkpt>
      <trkpt lat="44.29918" lon="3.6912">
        <ele>910</ele>
        <time>2014-05-30T11:12:40Z</time>
      </trkpt>
      <trkpt lat="44.29915" lon="3.69107">
        <ele>906</ele>
        <time>2014-05-30T11:12:49Z</time>
      </trkpt>
      <trkpt lat="44.29906" lon="3.69094">
        <ele>901</ele>
        <time>2014-05-30T11:12:59Z</time>
      </trkpt>
      <trkpt lat="44.29896" lon="3.69085">
        <ele>901</ele>
        <time>2014-05-30T11:13:08Z</time>
      </trkpt>
      <trkpt lat="44.29882" lon="3.6908">
        <ele>901</ele>
        <time>2014-05-30T11:13:17Z</time>
      </trkpt>
      <trkpt lat="44.29872" lon="3.69075">
        <ele>900</ele>
        <time>2014-05-30T11:13:26Z</time>
      </trkpt>
      <trkpt lat="44.29866" lon="3.69061">
        <ele>896</ele>
        <time>2014-05-30T11:13:35Z</time>
      </trkpt>
      <trkpt lat="44.29864" lon="3.69046">
        <ele>896</ele>
        <time>2014-05-30T11:13:44Z</time>
      </trkpt>
      <trkpt lat="44.29856" lon="3.69027">
        <ele>893</ele>
        <time>2014-05-30T11:13:53Z</time>
      </trkpt>
      <trkpt lat="44.29848" lon="3.69016">
        <ele>893</ele>
        <time>2014-05-30T11:14:04Z</time>
      </trkpt>
      <trkpt lat="44.2984" lon="3.69012">
        <ele>893</ele>
        <time>2014-05-30T11:14:15Z</time>
      </trkpt>
      <trkpt lat="44.29828" lon="3.69007">
        <ele>890</ele>
        <time>2014-05-30T11:14:24Z</time>
      </trkpt>
      <trkpt lat="44.29816" lon="3.69001">
        <ele>884</ele>
        <time>2014-05-30T11:14:34Z</time>
      </trkpt>
      <trkpt lat="44.29807" lon="3.68987">
        <ele>883</ele>
        <time>2014-05-30T11:14:44Z</time>
      </trkpt>
      <trkpt lat="44.298" lon="3.68972">
        <ele>883</ele>
        <time>2014-05-30T11:14:54Z</time>
      </trkpt>
      <trkpt lat="44.29794" lon="3.68966">
        <ele>883</ele>
        <time>2014-05-30T11:15:03Z</time>
      </trkpt>
      <trkpt lat="44.29791" lon="3.68961">
        <ele>883</ele>
        <time>2014-05-30T11:15:15Z</time>
      </trkpt>
      <trkpt lat="44.29786" lon="3.68954">
        <ele>883</ele>
        <time>2014-05-30T11:15:25Z</time>
      </trkpt>
      <trkpt lat="44.29776" lon="3.68947">
        <ele>883</ele>
        <time>2014-05-30T11:15:35Z</time>
      </trkpt>
      <trkpt lat="44.2977" lon="3.68941">
        <ele>880</ele>
        <time>2014-05-30T11:15:44Z</time>
      </trkpt>
      <trkpt lat="44.29757" lon="3.68938">
        <ele>878</ele>
        <time>2014-05-30T11:15:55Z</time>
      </trkpt>
      <trkpt lat="44.29746" lon="3.68935">
        <ele>877</ele>
        <time>2014-05-30T11:16:05Z</time>
      </trkpt>
      <trkpt lat="44.29733" lon="3.68923">
        <ele>875</ele>
        <time>2014-05-30T11:16:16Z</time>
      </trkpt>
      <trkpt lat="44.29724" lon="3.68913">
        <ele>870</ele>
        <time>2014-05-30T11:16:27Z</time>
      </trkpt>
      <trkpt lat="44.29717" lon="3.689">
        <ele>869</ele>
        <time>2014-05-30T11:16:37Z</time>
      </trkpt>
      <trkpt lat="44.29713" lon="3.68888">
        <ele>869</ele>
        <time>2014-05-30T11:16:46Z</time>
      </trkpt>
      <trkpt lat="44.29705" lon="3.68876">
        <ele>872</ele>
        <time>2014-05-30T11:16:57Z</time>
      </trkpt>
      <trkpt lat="44.29694" lon="3.68868">
        <ele>872</ele>
        <time>2014-05-30T11:17:08Z</time>
      </trkpt>
      <trkpt lat="44.29683" lon="3.68864">
        <ele>872</ele>
        <time>2014-05-30T11:17:18Z</time>
      </trkpt>
      <trkpt lat="44.29668" lon="3.68861">
        <ele>870</ele>
        <time>2014-05-30T11:17:28Z</time>
      </trkpt>
      <trkpt lat="44.29657" lon="3.68864">
        <ele>870</ele>
        <time>2014-05-30T11:17:37Z</time>
      </trkpt>
      <trkpt lat="44.29643" lon="3.68865">
        <ele>868</ele>
        <time>2014-05-30T11:17:46Z</time>
      </trkpt>
      <trkpt lat="44.29631" lon="3.68865">
        <ele>868</ele>
        <time>2014-05-30T11:17:56Z</time>
      </trkpt>
      <trkpt lat="44.29618" lon="3.68865">
        <ele>868</ele>
        <time>2014-05-30T11:18:06Z</time>
      </trkpt>
      <trkpt lat="44.29607" lon="3.68857">
        <ele>870</ele>
        <time>2014-05-30T11:18:16Z</time>
      </trkpt>
      <trkpt lat="44.29595" lon="3.68856">
        <ele>875</ele>
        <time>2014-05-30T11:18:25Z</time>
      </trkpt>
      <trkpt lat="44.29583" lon="3.68854">
        <ele>875</ele>
        <time>2014-05-30T11:18:34Z</time>
      </trkpt>
      <trkpt lat="44.2957" lon="3.68848">
        <ele>875</ele>
        <time>2014-05-30T11:18:45Z</time>
      </trkpt>
      <trkpt lat="44.29558" lon="3.68848">
        <ele>875</ele>
        <time>2014-05-30T11:18:55Z</time>
      </trkpt>
      <trkpt lat="44.29548" lon="3.68837">
        <ele>873</ele>
        <time>2014-05-30T11:19:05Z</time>
      </trkpt>
      <trkpt lat="44.29539" lon="3.68833">
        <ele>872</ele>
        <time>2014-05-30T11:19:14Z</time>
      </trkpt>
      <trkpt lat="44.29526" lon="3.6883">
        <ele>871</ele>
        <time>2014-05-30T11:19:24Z</time>
      </trkpt>
      <trkpt lat="44.29515" lon="3.68832">
        <ele>870</ele>
        <time>2014-05-30T11:19:35Z</time>
      </trkpt>
      <trkpt lat="44.29506" lon="3.68834">
        <ele>867</ele>
        <time>2014-05-30T11:19:45Z</time>
      </trkpt>
      <trkpt lat="44.29498" lon="3.68841">
        <ele>865</ele>
        <time>2014-05-30T11:19:56Z</time>
      </trkpt>
      <trkpt lat="44.29498" lon="3.68848">
        <ele>863</ele>
        <time>2014-05-30T11:20:07Z</time>
      </trkpt>
      <trkpt lat="44.29495" lon="3.6886">
        <ele>861</ele>
        <time>2014-05-30T11:20:18Z</time>
      </trkpt>
      <trkpt lat="44.29488" lon="3.68871">
        <ele>857</ele>
        <time>2014-05-30T11:20:29Z</time>
      </trkpt>
      <trkpt lat="44.29479" lon="3.68879">
        <ele>852</ele>
        <time>2014-05-30T11:20:39Z</time>
      </trkpt>
      <trkpt lat="44.2947" lon="3.6889">
        <ele>852</ele>
        <time>2014-05-30T11:20:48Z</time>
      </trkpt>
      <trkpt lat="44.29467" lon="3.68899">
        <ele>852</ele>
        <time>2014-05-30T11:20:57Z</time>
      </trkpt>
      <trkpt lat="44.29458" lon="3.6891">
        <ele>851</ele>
        <time>2014-05-30T11:21:08Z</time>
      </trkpt>
      <trkpt lat="44.29449" lon="3.68913">
        <ele>851</ele>
        <time>2014-05-30T11:21:18Z</time>
      </trkpt>
      <trkpt lat="44.29443" lon="3.68915">
        <ele>851</ele>
        <time>2014-05-30T11:21:29Z</time>
      </trkpt>
      <trkpt lat="44.29434" lon="3.68916">
        <ele>851</ele>
        <time>2014-05-30T11:21:38Z</time>
      </trkpt>
      <trkpt lat="44.29423" lon="3.68907">
        <ele>847</ele>
        <time>2014-05-30T11:21:48Z</time>
      </trkpt>
      <trkpt lat="44.29415" lon="3.689">
        <ele>847</ele>
        <time>2014-05-30T11:21:57Z</time>
      </trkpt>
      <trkpt lat="44.29403" lon="3.68891">
        <ele>847</ele>
        <time>2014-05-30T11:22:06Z</time>
      </trkpt>
      <trkpt lat="44.29394" lon="3.68887">
        <ele>847</ele>
        <time>2014-05-30T11:22:15Z</time>
      </trkpt>
      <trkpt lat="44.29383" lon="3.68888">
        <ele>847</ele>
        <time>2014-05-30T11:22:24Z</time>
      </trkpt>
      <trkpt lat="44.29372" lon="3.68893">
        <ele>845</ele>
        <time>2014-05-30T11:22:33Z</time>
      </trkpt>
      <trkpt lat="44.29362" lon="3.68897">
        <ele>845</ele>
        <time>2014-05-30T11:22:42Z</time>
      </trkpt>
      <trkpt lat="44.29352" lon="3.68901">
        <ele>845</ele>
        <time>2014-05-30T11:22:52Z</time>
      </trkpt>
      <trkpt lat="44.29352" lon="3.68902">
        <ele>844</ele>
        <time>2014-05-30T11:23:03Z</time>
      </trkpt>
      <trkpt lat="44.29348" lon="3.68907">
        <ele>843</ele>
        <time>2014-05-30T11:23:13Z</time>
      </trkpt>
      <trkpt lat="44.29344" lon="3.68917">
        <ele>842</ele>
        <time>2014-05-30T11:23:23Z</time>
      </trkpt>
      <trkpt lat="44.2934" lon="3.68925">
        <ele>839</ele>
        <time>2014-05-30T11:23:32Z</time>
      </trkpt>
      <trkpt lat="44.29337" lon="3.68935">
        <ele>835</ele>
        <time>2014-05-30T11:23:41Z</time>
      </trkpt>
      <trkpt lat="44.29337" lon="3.68945">
        <ele>832</ele>
        <time>2014-05-30T11:23:51Z</time>
      </trkpt>
      <trkpt lat="44.29335" lon="3.68957">
        <ele>831</ele>
        <time>2014-05-30T11:24:00Z</time>
      </trkpt>
      <trkpt lat="44.2933" lon="3.6897">
        <ele>830</ele>
        <time>2014-05-30T11:24:09Z</time>
      </trkpt>
      <trkpt lat="44.29327" lon="3.68987">
        <ele>830</ele>
        <time>2014-05-30T11:24:19Z</time>
      </trkpt>
      <trkpt lat="44.29322" lon="3.69003">
        <ele>829</ele>
        <time>2014-05-30T11:24:29Z</time>
      </trkpt>
      <trkpt lat="44.29316" lon="3.69015">
        <ele>829</ele>
        <time>2014-05-30T11:24:38Z</time>
      </trkpt>
      <trkpt lat="44.2931" lon="3.69024">
        <ele>829</ele>
        <time>2014-05-30T11:24:47Z</time>
      </trkpt>
      <trkpt lat="44.29298" lon="3.69033">
        <ele>829</ele>
        <time>2014-05-30T11:24:57Z</time>
      </trkpt>
      <trkpt lat="44.29291" lon="3.69045">
        <ele>831</ele>
        <time>2014-05-30T11:25:06Z</time>
      </trkpt>
      <trkpt lat="44.29286" lon="3.69059">
        <ele>833</ele>
        <time>2014-05-30T11:25:16Z</time>
      </trkpt>
      <trkpt lat="44.29284" lon="3.6906">
        <ele>833</ele>
        <time>2014-05-30T11:25:25Z</time>
      </trkpt>
      <trkpt lat="44.29285" lon="3.69062">
        <ele>837</ele>
        <time>2014-05-30T11:25:35Z</time>
      </trkpt>
      <trkpt lat="44.29283" lon="3.69061">
        <ele>841</ele>
        <time>2014-05-30T11:25:47Z</time>
      </trkpt>
      <trkpt lat="44.29281" lon="3.69062">
        <ele>843</ele>
        <time>2014-05-30T11:26:00Z</time>
      </trkpt>
      <trkpt lat="44.29279" lon="3.69072">
        <ele>843</ele>
        <time>2014-05-30T11:26:09Z</time>
      </trkpt>
      <trkpt lat="44.29276" lon="3.69088">
        <ele>838</ele>
        <time>2014-05-30T11:26:18Z</time>
      </trkpt>
      <trkpt lat="44.2927" lon="3.69098">
        <ele>830</ele>
        <time>2014-05-30T11:26:27Z</time>
      </trkpt>
      <trkpt lat="44.29263" lon="3.69105">
        <ele>826</ele>
        <time>2014-05-30T11:26:36Z</time>
      </trkpt>
      <trkpt lat="44.29254" lon="3.69112">
        <ele>825</ele>
        <time>2014-05-30T11:26:45Z</time>
      </trkpt>
      <trkpt lat="44.29245" lon="3.69124">
        <ele>824</ele>
        <time>2014-05-30T11:26:55Z</time>
      </trkpt>
      <trkpt lat="44.29235" lon="3.69132">
        <ele>824</ele>
        <time>2014-05-30T11:27:05Z</time>
      </trkpt>
      <trkpt lat="44.29226" lon="3.69136">
        <ele>823</ele>
        <time>2014-05-30T11:27:14Z</time>
      </trkpt>
      <trkpt lat="44.29219" lon="3.69139">
        <ele>823</ele>
        <time>2014-05-30T11:27:24Z</time>
      </trkpt>
      <trkpt lat="44.29209" lon="3.69137">
        <ele>823</ele>
        <time>2014-05-30T11:27:34Z</time>
      </trkpt>
      <trkpt lat="44.29203" lon="3.69138">
        <ele>818</ele>
        <time>2014-05-30T11:27:45Z</time>
      </trkpt>
      <trkpt lat="44.29197" lon="3.69136">
        <ele>816</ele>
        <time>2014-05-30T11:27:55Z</time>
      </trkpt>
      <trkpt lat="44.29194" lon="3.69131">
        <ele>816</ele>
        <time>2014-05-30T11:28:05Z</time>
      </trkpt>
      <trkpt lat="44.292" lon="3.69124">
        <ele>816</ele>
        <time>2014-05-30T11:28:15Z</time>
      </trkpt>
      <trkpt lat="44.29204" lon="3.69112">
        <ele>816</ele>
        <time>2014-05-30T11:28:24Z</time>
      </trkpt>
      <trkpt lat="44.29206" lon="3.69103">
        <ele>816</ele>
        <time>2014-05-30T11:28:34Z</time>
      </trkpt>
      <trkpt lat="44.292" lon="3.69107">
        <ele>809</ele>
        <time>2014-05-30T11:28:43Z</time>
      </trkpt>
      <trkpt lat="44.29197" lon="3.69099">
        <ele>800</ele>
        <time>2014-05-30T11:28:52Z</time>
      </trkpt>
      <trkpt lat="44.29205" lon="3.69087">
        <ele>801</ele>
        <time>2014-05-30T11:29:02Z</time>
      </trkpt>
      <trkpt lat="44.29211" lon="3.69074">
        <ele>808</ele>
        <time>2014-05-30T11:29:14Z</time>
      </trkpt>
      <trkpt lat="44.2921" lon="3.69064">
        <ele>809</ele>
        <time>2014-05-30T11:29:23Z</time>
      </trkpt>
      <trkpt lat="44.29198" lon="3.69069">
        <ele>809</ele>
        <time>2014-05-30T11:29:32Z</time>
      </trkpt>
      <trkpt lat="44.29205" lon="3.69065">
        <ele>799</ele>
        <time>2014-05-30T11:29:42Z</time>
      </trkpt>
      <trkpt lat="44.29197" lon="3.69064">
        <ele>795</ele>
        <time>2014-05-30T11:29:51Z</time>
      </trkpt>
      <trkpt lat="44.29196" lon="3.69056">
        <ele>795</ele>
        <time>2014-05-30T11:30:01Z</time>
      </trkpt>
      <trkpt lat="44.29186" lon="3.69057">
        <ele>790</ele>
        <time>2014-05-30T11:30:11Z</time>
      </trkpt>
      <trkpt lat="44.29176" lon="3.69057">
        <ele>786</ele>
        <time>2014-05-30T11:30:20Z</time>
      </trkpt>
      <trkpt lat="44.29171" lon="3.69057">
        <ele>785</ele>
        <time>2014-05-30T11:30:30Z</time>
      </trkpt>
      <trkpt lat="44.29162" lon="3.69059">
        <ele>781</ele>
        <time>2014-05-30T11:30:39Z</time>
      </trkpt>
      <trkpt lat="44.29153" lon="3.69058">
        <ele>778</ele>
        <time>2014-05-30T11:30:49Z</time>
      </trkpt>
      <trkpt lat="44.29149" lon="3.69054">
        <ele>772</ele>
        <time>2014-05-30T11:30:58Z</time>
      </trkpt>
      <trkpt lat="44.29154" lon="3.69047">
        <ele>770</ele>
        <time>2014-05-30T11:31:08Z</time>
      </trkpt>
      <trkpt lat="44.29148" lon="3.69044">
        <ele>765</ele>
        <time>2014-05-30T11:31:17Z</time>
      </trkpt>
      <trkpt lat="44.29142" lon="3.69041">
        <ele>765</ele>
        <time>2014-05-30T11:31:26Z</time>
      </trkpt>
      <trkpt lat="44.29139" lon="3.69036">
        <ele>763</ele>
        <time>2014-05-30T11:31:36Z</time>
      </trkpt>
      <trkpt lat="44.2913" lon="3.69039">
        <ele>762</ele>
        <time>2014-05-30T11:31:46Z</time>
      </trkpt>
      <trkpt lat="44.29119" lon="3.69047">
        <ele>758</ele>
        <time>2014-05-30T11:31:56Z</time>
      </trkpt>
      <trkpt lat="44.29111" lon="3.69056">
        <ele>756</ele>
        <time>2014-05-30T11:32:06Z</time>
      </trkpt>
      <trkpt lat="44.29116" lon="3.69042">
        <ele>754</ele>
        <time>2014-05-30T11:32:16Z</time>
      </trkpt>
      <trkpt lat="44.29123" lon="3.69029">
        <ele>754</ele>
        <time>2014-05-30T11:32:26Z</time>
      </trkpt>
      <trkpt lat="44.29125" lon="3.6902">
        <ele>754</ele>
        <time>2014-05-30T11:32:36Z</time>
      </trkpt>
      <trkpt lat="44.29114" lon="3.6902">
        <ele>749</ele>
        <time>2014-05-30T11:32:45Z</time>
      </trkpt>
      <trkpt lat="44.29105" lon="3.69026">
        <ele>743</ele>
        <time>2014-05-30T11:32:55Z</time>
      </trkpt>
      <trkpt lat="44.291" lon="3.69019">
        <ele>743</ele>
        <time>2014-05-30T11:33:04Z</time>
      </trkpt>
      <trkpt lat="44.291" lon="3.69006">
        <ele>743</ele>
        <time>2014-05-30T11:33:13Z</time>
      </trkpt>
      <trkpt lat="44.29092" lon="3.69007">
        <ele>743</ele>
        <time>2014-05-30T11:33:23Z</time>
      </trkpt>
      <trkpt lat="44.29085" lon="3.69016">
        <ele>737</ele>
        <time>2014-05-30T11:33:37Z</time>
      </trkpt>
      <trkpt lat="44.29088" lon="3.69006">
        <ele>736</ele>
        <time>2014-05-30T11:33:47Z</time>
      </trkpt>
      <trkpt lat="44.2909" lon="3.68993">
        <ele>733</ele>
        <time>2014-05-30T11:33:56Z</time>
      </trkpt>
      <trkpt lat="44.29099" lon="3.68981">
        <ele>733</ele>
        <time>2014-05-30T11:34:05Z</time>
      </trkpt>
      <trkpt lat="44.29105" lon="3.68972">
        <ele>733</ele>
        <time>2014-05-30T11:34:14Z</time>
      </trkpt>
      <trkpt lat="44.29099" lon="3.68964">
        <ele>733</ele>
        <time>2014-05-30T11:34:23Z</time>
      </trkpt>
      <trkpt lat="44.29091" lon="3.68965">
        <ele>730</ele>
        <time>2014-05-30T11:34:32Z</time>
      </trkpt>
      <trkpt lat="44.29082" lon="3.68974">
        <ele>724</ele>
        <time>2014-05-30T11:34:41Z</time>
      </trkpt>
      <trkpt lat="44.29084" lon="3.68964">
        <ele>720</ele>
        <time>2014-05-30T11:34:51Z</time>
      </trkpt>
      <trkpt lat="44.29089" lon="3.68954">
        <ele>718</ele>
        <time>2014-05-30T11:35:01Z</time>
      </trkpt>
      <trkpt lat="44.29094" lon="3.68938">
        <ele>719</ele>
        <time>2014-05-30T11:35:10Z</time>
      </trkpt>
      <trkpt lat="44.29096" lon="3.68924">
        <ele>721</ele>
        <time>2014-05-30T11:35:20Z</time>
      </trkpt>
      <trkpt lat="44.29092" lon="3.68919">
        <ele>723</ele>
        <time>2014-05-30T11:35:29Z</time>
      </trkpt>
      <trkpt lat="44.29085" lon="3.68924">
        <ele>717</ele>
        <time>2014-05-30T11:35:38Z</time>
      </trkpt>
      <trkpt lat="44.29076" lon="3.68922">
        <ele>708</ele>
        <time>2014-05-30T11:35:48Z</time>
      </trkpt>
      <trkpt lat="44.29079" lon="3.68909">
        <ele>708</ele>
        <time>2014-05-30T11:35:57Z</time>
      </trkpt>
      <trkpt lat="44.29081" lon="3.68904">
        <ele>705</ele>
        <time>2014-05-30T11:36:06Z</time>
      </trkpt>
      <trkpt lat="44.29074" lon="3.68896">
        <ele>700</ele>
        <time>2014-05-30T11:36:16Z</time>
      </trkpt>
      <trkpt lat="44.29066" lon="3.68898">
        <ele>699</ele>
        <time>2014-05-30T11:36:26Z</time>
      </trkpt>
      <trkpt lat="44.29059" lon="3.68902">
        <ele>698</ele>
        <time>2014-05-30T11:36:35Z</time>
      </trkpt>
      <trkpt lat="44.29054" lon="3.68893">
        <ele>698</ele>
        <time>2014-05-30T11:36:44Z</time>
      </trkpt>
      <trkpt lat="44.29056" lon="3.68875">
        <ele>699</ele>
        <time>2014-05-30T11:36:54Z</time>
      </trkpt>
      <trkpt lat="44.2905" lon="3.6887">
        <ele>699</ele>
        <time>2014-05-30T11:37:03Z</time>
      </trkpt>
      <trkpt lat="44.29041" lon="3.68872">
        <ele>691</ele>
        <time>2014-05-30T11:37:13Z</time>
      </trkpt>
      <trkpt lat="44.2904" lon="3.68863">
        <ele>688</ele>
        <time>2014-05-30T11:37:22Z</time>
      </trkpt>
      <trkpt lat="44.29047" lon="3.68857">
        <ele>687</ele>
        <time>2014-05-30T11:37:31Z</time>
      </trkpt>
      <trkpt lat="44.29045" lon="3.68849">
        <ele>687</ele>
        <time>2014-05-30T11:37:42Z</time>
      </trkpt>
      <trkpt lat="44.29037" lon="3.68846">
        <ele>682</ele>
        <time>2014-05-30T11:37:51Z</time>
      </trkpt>
      <trkpt lat="44.29036" lon="3.68838">
        <ele>680</ele>
        <time>2014-05-30T11:38:00Z</time>
      </trkpt>
      <trkpt lat="44.29043" lon="3.68829">
        <ele>678</ele>
        <time>2014-05-30T11:38:12Z</time>
      </trkpt>
      <trkpt lat="44.2905" lon="3.68823">
        <ele>678</ele>
        <time>2014-05-30T11:38:21Z</time>
      </trkpt>
      <trkpt lat="44.29052" lon="3.68813">
        <ele>677</ele>
        <time>2014-05-30T11:38:31Z</time>
      </trkpt>
      <trkpt lat="44.29049" lon="3.68805">
        <ele>677</ele>
        <time>2014-05-30T11:38:40Z</time>
      </trkpt>
      <trkpt lat="44.29047" lon="3.68798">
        <ele>677</ele>
        <time>2014-05-30T11:38:50Z</time>
      </trkpt>
      <trkpt lat="44.29047" lon="3.68795">
        <ele>677</ele>
        <time>2014-05-30T11:38:59Z</time>
      </trkpt>
      <trkpt lat="44.29049" lon="3.68788">
        <ele>677</ele>
        <time>2014-05-30T11:39:09Z</time>
      </trkpt>
      <trkpt lat="44.29054" lon="3.68794">
        <ele>676</ele>
        <time>2014-05-30T11:39:18Z</time>
      </trkpt>
      <trkpt lat="44.29046" lon="3.68799">
        <ele>673</ele>
        <time>2014-05-30T11:39:27Z</time>
      </trkpt>
      <trkpt lat="44.29036" lon="3.68808">
        <ele>664</ele>
        <time>2014-05-30T11:39:36Z</time>
      </trkpt>
      <trkpt lat="44.29027" lon="3.68817">
        <ele>662</ele>
        <time>2014-05-30T11:39:45Z</time>
      </trkpt>
      <trkpt lat="44.29025" lon="3.68821">
        <ele>662</ele>
        <time>2014-05-30T11:39:54Z</time>
      </trkpt>
      <trkpt lat="44.2902" lon="3.68818">
        <ele>661</ele>
        <time>2014-05-30T11:40:04Z</time>
      </trkpt>
      <trkpt lat="44.29023" lon="3.68818">
        <ele>661</ele>
        <time>2014-05-30T11:40:14Z</time>
      </trkpt>
      <trkpt lat="44.29036" lon="3.68814">
        <ele>661</ele>
        <time>2014-05-30T11:40:24Z</time>
      </trkpt>
      <trkpt lat="44.29046" lon="3.68807">
        <ele>661</ele>
        <time>2014-05-30T11:40:33Z</time>
      </trkpt>
      <trkpt lat="44.29052" lon="3.68795">
        <ele>666</ele>
        <time>2014-05-30T11:40:42Z</time>
      </trkpt>
      <trkpt lat="44.29046" lon="3.68799">
        <ele>668</ele>
        <time>2014-05-30T11:40:51Z</time>
      </trkpt>
      <trkpt lat="44.29045" lon="3.68798">
        <ele>668</ele>
        <time>2014-05-30T11:41:00Z</time>
      </trkpt>
      <trkpt lat="44.29056" lon="3.68795">
        <ele>671</ele>
        <time>2014-05-30T11:41:09Z</time>
      </trkpt>
      <trkpt lat="44.29066" lon="3.6879">
        <ele>671</ele>
        <time>2014-05-30T11:41:18Z</time>
      </trkpt>
      <trkpt lat="44.29075" lon="3.68788">
        <ele>671</ele>
        <time>2014-05-30T11:41:27Z</time>
      </trkpt>
      <trkpt lat="44.29086" lon="3.68781">
        <ele>671</ele>
        <time>2014-05-30T11:41:36Z</time>
      </trkpt>
      <trkpt lat="44.29099" lon="3.68777">
        <ele>671</ele>
        <time>2014-05-30T11:41:46Z</time>
      </trkpt>
      <trkpt lat="44.2911" lon="3.68772">
        <ele>671</ele>
        <time>2014-05-30T11:41:55Z</time>
      </trkpt>
      <trkpt lat="44.29122" lon="3.68766">
        <ele>670</ele>
        <time>2014-05-30T11:42:04Z</time>
      </trkpt>
      <trkpt lat="44.29135" lon="3.68764">
        <ele>670</ele>
        <time>2014-05-30T11:42:13Z</time>
      </trkpt>
      <trkpt lat="44.29145" lon="3.68755">
        <ele>670</ele>
        <time>2014-05-30T11:42:22Z</time>
      </trkpt>
      <trkpt lat="44.29153" lon="3.68747">
        <ele>670</ele>
        <time>2014-05-30T11:42:31Z</time>
      </trkpt>
      <trkpt lat="44.29158" lon="3.68741">
        <ele>670</ele>
        <time>2014-05-30T11:42:41Z</time>
      </trkpt>
      <trkpt lat="44.29169" lon="3.68735">
        <ele>670</ele>
        <time>2014-05-30T11:42:50Z</time>
      </trkpt>
      <trkpt lat="44.29182" lon="3.68729">
        <ele>664</ele>
        <time>2014-05-30T11:43:00Z</time>
      </trkpt>
      <trkpt lat="44.29193" lon="3.68725">
        <ele>662</ele>
        <time>2014-05-30T11:43:09Z</time>
      </trkpt>
      <trkpt lat="44.29202" lon="3.68712">
        <ele>662</ele>
        <time>2014-05-30T11:43:18Z</time>
      </trkpt>
      <trkpt lat="44.2921" lon="3.68701">
        <ele>662</ele>
        <time>2014-05-30T11:43:27Z</time>
      </trkpt>
      <trkpt lat="44.29216" lon="3.68686">
        <ele>662</ele>
        <time>2014-05-30T11:43:36Z</time>
      </trkpt>
      <trkpt lat="44.29219" lon="3.68679">
        <ele>661</ele>
        <time>2014-05-30T11:43:45Z</time>
      </trkpt>
      <trkpt lat="44.29225" lon="3.68665">
        <ele>659</ele>
        <time>2014-05-30T11:43:54Z</time>
      </trkpt>
      <trkpt lat="44.29226" lon="3.6866">
        <ele>654</ele>
        <time>2014-05-30T11:44:03Z</time>
      </trkpt>
      <trkpt lat="44.29227" lon="3.68646">
        <ele>651</ele>
        <time>2014-05-30T11:44:12Z</time>
      </trkpt>
      <trkpt lat="44.29229" lon="3.6863">
        <ele>651</ele>
        <time>2014-05-30T11:44:22Z</time>
      </trkpt>
      <trkpt lat="44.29188" lon="3.68638">
        <ele>737</ele>
        <time>2014-05-30T11:44:36Z</time>
      </trkpt>
      <trkpt lat="44.2921" lon="3.68595">
        <ele>722</ele>
        <time>2014-05-30T11:45:09Z</time>
      </trkpt>
      <trkpt lat="44.29227" lon="3.68573">
        <ele>703</ele>
        <time>2014-05-30T11:45:18Z</time>
      </trkpt>
      <trkpt lat="44.29242" lon="3.68552">
        <ele>678</ele>
        <time>2014-05-30T11:45:28Z</time>
      </trkpt>
      <trkpt lat="44.29251" lon="3.68541">
        <ele>664</ele>
        <time>2014-05-30T11:45:39Z</time>
      </trkpt>
      <trkpt lat="44.29252" lon="3.68532">
        <ele>656</ele>
        <time>2014-05-30T11:45:49Z</time>
      </trkpt>
      <trkpt lat="44.29264" lon="3.68513">
        <ele>655</ele>
        <time>2014-05-30T11:46:03Z</time>
      </trkpt>
      <trkpt lat="44.29275" lon="3.68503">
        <ele>650</ele>
        <time>2014-05-30T11:46:12Z</time>
      </trkpt>
      <trkpt lat="44.29274" lon="3.68494">
        <ele>650</ele>
        <time>2014-05-30T11:46:23Z</time>
      </trkpt>
      <trkpt lat="44.29288" lon="3.68486">
        <ele>655</ele>
        <time>2014-05-30T11:46:36Z</time>
      </trkpt>
      <trkpt lat="44.29302" lon="3.68474">
        <ele>664</ele>
        <time>2014-05-30T11:46:50Z</time>
      </trkpt>
      <trkpt lat="44.29318" lon="3.68468">
        <ele>665</ele>
        <time>2014-05-30T11:47:00Z</time>
      </trkpt>
      <trkpt lat="44.29327" lon="3.68473">
        <ele>658</ele>
        <time>2014-05-30T11:47:09Z</time>
      </trkpt>
      <trkpt lat="44.29338" lon="3.68468">
        <ele>658</ele>
        <time>2014-05-30T11:47:18Z</time>
      </trkpt>
      <trkpt lat="44.29348" lon="3.68465">
        <ele>656</ele>
        <time>2014-05-30T11:47:27Z</time>
      </trkpt>
      <trkpt lat="44.29363" lon="3.68455">
        <ele>662</ele>
        <time>2014-05-30T11:47:36Z</time>
      </trkpt>
      <trkpt lat="44.29372" lon="3.68453">
        <ele>662</ele>
        <time>2014-05-30T11:47:45Z</time>
      </trkpt>
      <trkpt lat="44.29382" lon="3.68451">
        <ele>662</ele>
        <time>2014-05-30T11:47:55Z</time>
      </trkpt>
      <trkpt lat="44.29385" lon="3.68443">
        <ele>671</ele>
        <time>2014-05-30T11:48:04Z</time>
      </trkpt>
      <trkpt lat="44.29409" lon="3.68435">
        <ele>671</ele>
        <time>2014-05-30T11:48:13Z</time>
      </trkpt>
      <trkpt lat="44.29417" lon="3.68426">
        <ele>658</ele>
        <time>2014-05-30T11:48:22Z</time>
      </trkpt>
      <trkpt lat="44.29427" lon="3.68412">
        <ele>655</ele>
        <time>2014-05-30T11:48:31Z</time>
      </trkpt>
      <trkpt lat="44.29437" lon="3.684">
        <ele>654</ele>
        <time>2014-05-30T11:48:40Z</time>
      </trkpt>
      <trkpt lat="44.29445" lon="3.68389">
        <ele>653</ele>
        <time>2014-05-30T11:48:50Z</time>
      </trkpt>
      <trkpt lat="44.29448" lon="3.68377">
        <ele>654</ele>
        <time>2014-05-30T11:49:00Z</time>
      </trkpt>
      <trkpt lat="44.29531" lon="3.68357">
        <ele>656</ele>
        <time>2014-05-30T11:50:01Z</time>
      </trkpt>
      <trkpt lat="44.29537" lon="3.68368">
        <ele>650</ele>
        <time>2014-05-30T11:50:11Z</time>
      </trkpt>
      <trkpt lat="44.29546" lon="3.68369">
        <ele>652</ele>
        <time>2014-05-30T11:50:21Z</time>
      </trkpt>
      <trkpt lat="44.29556" lon="3.68375">
        <ele>652</ele>
        <time>2014-05-30T11:50:30Z</time>
      </trkpt>
      <trkpt lat="44.29568" lon="3.6838">
        <ele>656</ele>
        <time>2014-05-30T11:50:39Z</time>
      </trkpt>
      <trkpt lat="44.29569" lon="3.6838">
        <ele>657</ele>
        <time>2014-05-30T11:51:11Z</time>
      </trkpt>
      <trkpt lat="44.29575" lon="3.68389">
        <ele>657</ele>
        <time>2014-05-30T11:51:20Z</time>
      </trkpt>
      <trkpt lat="44.29585" lon="3.68401">
        <ele>652</ele>
        <time>2014-05-30T11:51:30Z</time>
      </trkpt>
      <trkpt lat="44.29596" lon="3.68403">
        <ele>649</ele>
        <time>2014-05-30T11:51:39Z</time>
      </trkpt>
      <trkpt lat="44.29606" lon="3.68404">
        <ele>649</ele>
        <time>2014-05-30T11:51:48Z</time>
      </trkpt>
      <trkpt lat="44.29616" lon="3.68395">
        <ele>656</ele>
        <time>2014-05-30T11:51:59Z</time>
      </trkpt>
      <trkpt lat="44.29626" lon="3.68398">
        <ele>656</ele>
        <time>2014-05-30T11:52:10Z</time>
      </trkpt>
      <trkpt lat="44.29639" lon="3.68402">
        <ele>647</ele>
        <time>2014-05-30T11:52:20Z</time>
      </trkpt>
      <trkpt lat="44.2965" lon="3.684">
        <ele>643</ele>
        <time>2014-05-30T11:52:30Z</time>
      </trkpt>
      <trkpt lat="44.2966" lon="3.68396">
        <ele>643</ele>
        <time>2014-05-30T11:52:39Z</time>
      </trkpt>
      <trkpt lat="44.2967" lon="3.68387">
        <ele>643</ele>
        <time>2014-05-30T11:52:48Z</time>
      </trkpt>
      <trkpt lat="44.2968" lon="3.68383">
        <ele>645</ele>
        <time>2014-05-30T11:52:57Z</time>
      </trkpt>
      <trkpt lat="44.29685" lon="3.68392">
        <ele>648</ele>
        <time>2014-05-30T11:53:06Z</time>
      </trkpt>
      <trkpt lat="44.29698" lon="3.68393">
        <ele>648</ele>
        <time>2014-05-30T11:53:15Z</time>
      </trkpt>
      <trkpt lat="44.29714" lon="3.68392">
        <ele>648</ele>
        <time>2014-05-30T11:53:24Z</time>
      </trkpt>
      <trkpt lat="44.29723" lon="3.68384">
        <ele>648</ele>
        <time>2014-05-30T11:53:34Z</time>
      </trkpt>
      <trkpt lat="44.29736" lon="3.68383">
        <ele>648</ele>
        <time>2014-05-30T11:53:44Z</time>
      </trkpt>
      <trkpt lat="44.29746" lon="3.68381">
        <ele>648</ele>
        <time>2014-05-30T11:53:54Z</time>
      </trkpt>
      <trkpt lat="44.29759" lon="3.68374">
        <ele>648</ele>
        <time>2014-05-30T11:54:03Z</time>
      </trkpt>
      <trkpt lat="44.29767" lon="3.68376">
        <ele>646</ele>
        <time>2014-05-30T11:54:13Z</time>
      </trkpt>
      <trkpt lat="44.29778" lon="3.68374">
        <ele>643</ele>
        <time>2014-05-30T11:54:22Z</time>
      </trkpt>
      <trkpt lat="44.29788" lon="3.68379">
        <ele>639</ele>
        <time>2014-05-30T11:54:32Z</time>
      </trkpt>
      <trkpt lat="44.29788" lon="3.68372">
        <ele>637</ele>
        <time>2014-05-30T11:54:42Z</time>
      </trkpt>
      <trkpt lat="44.29799" lon="3.68363">
        <ele>637</ele>
        <time>2014-05-30T11:54:51Z</time>
      </trkpt>
      <trkpt lat="44.29805" lon="3.68348">
        <ele>637</ele>
        <time>2014-05-30T11:55:00Z</time>
      </trkpt>
      <trkpt lat="44.29801" lon="3.6834">
        <ele>637</ele>
        <time>2014-05-30T11:55:16Z</time>
      </trkpt>
      <trkpt lat="44.29806" lon="3.68342">
        <ele>638</ele>
        <time>2014-05-30T11:55:26Z</time>
      </trkpt>
      <trkpt lat="44.29817" lon="3.6833">
        <ele>640</ele>
        <time>2014-05-30T11:55:35Z</time>
      </trkpt>
      <trkpt lat="44.29825" lon="3.68319">
        <ele>640</ele>
        <time>2014-05-30T11:55:44Z</time>
      </trkpt>
      <trkpt lat="44.29833" lon="3.68309">
        <ele>640</ele>
        <time>2014-05-30T11:55:53Z</time>
      </trkpt>
      <trkpt lat="44.29842" lon="3.68295">
        <ele>640</ele>
        <time>2014-05-30T11:56:02Z</time>
      </trkpt>
      <trkpt lat="44.29848" lon="3.68277">
        <ele>640</ele>
        <time>2014-05-30T11:56:11Z</time>
      </trkpt>
      <trkpt lat="44.29855" lon="3.68266">
        <ele>640</ele>
        <time>2014-05-30T11:56:20Z</time>
      </trkpt>
      <trkpt lat="44.29858" lon="3.68246">
        <ele>640</ele>
        <time>2014-05-30T11:56:30Z</time>
      </trkpt>
      <trkpt lat="44.29865" lon="3.68232">
        <ele>640</ele>
        <time>2014-05-30T11:56:39Z</time>
      </trkpt>
      <trkpt lat="44.2987" lon="3.68216">
        <ele>640</ele>
        <time>2014-05-30T11:56:49Z</time>
      </trkpt>
      <trkpt lat="44.29872" lon="3.68199">
        <ele>640</ele>
        <time>2014-05-30T11:56:58Z</time>
      </trkpt>
      <trkpt lat="44.29874" lon="3.68182">
        <ele>643</ele>
        <time>2014-05-30T11:57:07Z</time>
      </trkpt>
      <trkpt lat="44.29881" lon="3.68168">
        <ele>646</ele>
        <time>2014-05-30T11:57:16Z</time>
      </trkpt>
      <trkpt lat="44.29885" lon="3.68152">
        <ele>646</ele>
        <time>2014-05-30T11:57:25Z</time>
      </trkpt>
      <trkpt lat="44.29889" lon="3.68136">
        <ele>646</ele>
        <time>2014-05-30T11:57:34Z</time>
      </trkpt>
      <trkpt lat="44.29892" lon="3.68121">
        <ele>647</ele>
        <time>2014-05-30T11:57:45Z</time>
      </trkpt>
      <trkpt lat="44.29892" lon="3.68113">
        <ele>650</ele>
        <time>2014-05-30T11:57:54Z</time>
      </trkpt>
      <trkpt lat="44.29889" lon="3.68101">
        <ele>657</ele>
        <time>2014-05-30T11:58:03Z</time>
      </trkpt>
      <trkpt lat="44.29886" lon="3.68084">
        <ele>666</ele>
        <time>2014-05-30T11:58:12Z</time>
      </trkpt>
      <trkpt lat="44.29889" lon="3.68075">
        <ele>674</ele>
        <time>2014-05-30T11:58:22Z</time>
      </trkpt>
      <trkpt lat="44.29924" lon="3.68003">
        <ele>676</ele>
        <time>2014-05-30T11:58:49Z</time>
      </trkpt>
      <trkpt lat="44.29934" lon="3.6801">
        <ele>653</ele>
        <time>2014-05-30T11:58:59Z</time>
      </trkpt>
      <trkpt lat="44.29941" lon="3.68001">
        <ele>636</ele>
        <time>2014-05-30T11:59:09Z</time>
      </trkpt>
      <trkpt lat="44.29948" lon="3.67985">
        <ele>630</ele>
        <time>2014-05-30T11:59:19Z</time>
      </trkpt>
      <trkpt lat="44.29957" lon="3.67972">
        <ele>630</ele>
        <time>2014-05-30T11:59:28Z</time>
      </trkpt>
      <trkpt lat="44.29966" lon="3.67957">
        <ele>630</ele>
        <time>2014-05-30T11:59:37Z</time>
      </trkpt>
      <trkpt lat="44.29971" lon="3.67944">
        <ele>630</ele>
        <time>2014-05-30T11:59:52Z</time>
      </trkpt>
      <trkpt lat="44.29982" lon="3.67934">
        <ele>630</ele>
        <time>2014-05-30T12:00:01Z</time>
      </trkpt>
      <trkpt lat="44.29985" lon="3.6792">
        <ele>630</ele>
        <time>2014-05-30T12:00:11Z</time>
      </trkpt>
      <trkpt lat="44.29992" lon="3.67911">
        <ele>630</ele>
        <time>2014-05-30T12:00:21Z</time>
      </trkpt>
      <trkpt lat="44.2999" lon="3.67912">
        <ele>630</ele>
        <time>2014-05-30T12:00:33Z</time>
      </trkpt>
      <trkpt lat="44.29987" lon="3.67905">
        <ele>634</ele>
        <time>2014-05-30T12:00:44Z</time>
      </trkpt>
      <trkpt lat="44.29988" lon="3.67903">
        <ele>636</ele>
        <time>2014-05-30T12:00:55Z</time>
      </trkpt>
      <trkpt lat="44.29995" lon="3.679">
        <ele>636</ele>
        <time>2014-05-30T12:01:11Z</time>
      </trkpt>
      <trkpt lat="44.29996" lon="3.67901">
        <ele>636</ele>
        <time>2014-05-30T12:01:30Z</time>
      </trkpt>
      <trkpt lat="44.29997" lon="3.67901">
        <ele>636</ele>
        <time>2014-05-30T12:02:17Z</time>
      </trkpt>
      <trkpt lat="44.29999" lon="3.67899">
        <ele>636</ele>
        <time>2014-05-30T12:02:39Z</time>
      </trkpt>
      <trkpt lat="44.3" lon="3.67897">
        <ele>636</ele>
        <time>2014-05-30T12:02:50Z</time>
      </trkpt>
      <trkpt lat="44.30001" lon="3.67895">
        <ele>636</ele>
        <time>2014-05-30T12:03:36Z</time>
      </trkpt>
      <trkpt lat="44.30013" lon="3.67883">
        <ele>634</ele>
        <time>2014-05-30T12:03:46Z</time>
      </trkpt>
      <trkpt lat="44.30015" lon="3.67879">
        <ele>634</ele>
        <time>2014-05-30T12:03:58Z</time>
      </trkpt>
      <trkpt lat="44.3002" lon="3.67864">
        <ele>634</ele>
        <time>2014-05-30T12:04:10Z</time>
      </trkpt>
      <trkpt lat="44.30028" lon="3.67848">
        <ele>633</ele>
        <time>2014-05-30T12:04:20Z</time>
      </trkpt>
      <trkpt lat="44.3003" lon="3.67831">
        <ele>633</ele>
        <time>2014-05-30T12:04:29Z</time>
      </trkpt>
      <trkpt lat="44.30038" lon="3.67815">
        <ele>633</ele>
        <time>2014-05-30T12:04:38Z</time>
      </trkpt>
      <trkpt lat="44.3004" lon="3.67798">
        <ele>633</ele>
        <time>2014-05-30T12:04:48Z</time>
      </trkpt>
      <trkpt lat="44.30033" lon="3.67784">
        <ele>633</ele>
        <time>2014-05-30T12:04:59Z</time>
      </trkpt>
      <trkpt lat="44.30032" lon="3.67765">
        <ele>633</ele>
        <time>2014-05-30T12:05:09Z</time>
      </trkpt>
      <trkpt lat="44.30026" lon="3.67747">
        <ele>633</ele>
        <time>2014-05-30T12:05:18Z</time>
      </trkpt>
      <trkpt lat="44.30021" lon="3.6773">
        <ele>634</ele>
        <time>2014-05-30T12:05:28Z</time>
      </trkpt>
      <trkpt lat="44.30013" lon="3.67716">
        <ele>640</ele>
        <time>2014-05-30T12:05:37Z</time>
      </trkpt>
      <trkpt lat="44.30008" lon="3.677">
        <ele>643</ele>
        <time>2014-05-30T12:05:46Z</time>
      </trkpt>
      <trkpt lat="44.29998" lon="3.67691">
        <ele>644</ele>
        <time>2014-05-30T12:05:56Z</time>
      </trkpt>
      <trkpt lat="44.29984" lon="3.67682">
        <ele>654</ele>
        <time>2014-05-30T12:06:06Z</time>
      </trkpt>
      <trkpt lat="44.29974" lon="3.67662">
        <ele>662</ele>
        <time>2014-05-30T12:06:16Z</time>
      </trkpt>
      <trkpt lat="44.29967" lon="3.67639">
        <ele>661</ele>
        <time>2014-05-30T12:06:26Z</time>
      </trkpt>
      <trkpt lat="44.29966" lon="3.67623">
        <ele>652</ele>
        <time>2014-05-30T12:06:36Z</time>
      </trkpt>
      <trkpt lat="44.29965" lon="3.67611">
        <ele>642</ele>
        <time>2014-05-30T12:06:46Z</time>
      </trkpt>
      <trkpt lat="44.29964" lon="3.67594">
        <ele>632</ele>
        <time>2014-05-30T12:06:56Z</time>
      </trkpt>
      <trkpt lat="44.29955" lon="3.67578">
        <ele>631</ele>
        <time>2014-05-30T12:07:06Z</time>
      </trkpt>
      <trkpt lat="44.29947" lon="3.67559">
        <ele>633</ele>
        <time>2014-05-30T12:07:16Z</time>
      </trkpt>
      <trkpt lat="44.29941" lon="3.67538">
        <ele>637</ele>
        <time>2014-05-30T12:07:26Z</time>
      </trkpt>
      <trkpt lat="44.29936" lon="3.67518">
        <ele>638</ele>
        <time>2014-05-30T12:07:37Z</time>
      </trkpt>
      <trkpt lat="44.29933" lon="3.67503">
        <ele>638</ele>
        <time>2014-05-30T12:07:46Z</time>
      </trkpt>
      <trkpt lat="44.2993" lon="3.67484">
        <ele>638</ele>
        <time>2014-05-30T12:07:56Z</time>
      </trkpt>
      <trkpt lat="44.29928" lon="3.67467">
        <ele>638</ele>
        <time>2014-05-30T12:08:06Z</time>
      </trkpt>
      <trkpt lat="44.29928" lon="3.67444">
        <ele>638</ele>
        <time>2014-05-30T12:08:16Z</time>
      </trkpt>
      <trkpt lat="44.29925" lon="3.67426">
        <ele>636</ele>
        <time>2014-05-30T12:08:26Z</time>
      </trkpt>
      <trkpt lat="44.29937" lon="3.67413">
        <ele>632</ele>
        <time>2014-05-30T12:08:36Z</time>
      </trkpt>
      <trkpt lat="44.29939" lon="3.67396">
        <ele>625</ele>
        <time>2014-05-30T12:08:46Z</time>
      </trkpt>
      <trkpt lat="44.2994" lon="3.67373">
        <ele>625</ele>
        <time>2014-05-30T12:08:56Z</time>
      </trkpt>
      <trkpt lat="44.29939" lon="3.67357">
        <ele>625</ele>
        <time>2014-05-30T12:09:06Z</time>
      </trkpt>
      <trkpt lat="44.29933" lon="3.67334">
        <ele>633</ele>
        <time>2014-05-30T12:09:16Z</time>
      </trkpt>
      <trkpt lat="44.29934" lon="3.67311">
        <ele>637</ele>
        <time>2014-05-30T12:09:26Z</time>
      </trkpt>
      <trkpt lat="44.29932" lon="3.67289">
        <ele>637</ele>
        <time>2014-05-30T12:09:36Z</time>
      </trkpt>
      <trkpt lat="44.2993" lon="3.6727">
        <ele>637</ele>
        <time>2014-05-30T12:09:47Z</time>
      </trkpt>
      <trkpt lat="44.29927" lon="3.67254">
        <ele>637</ele>
        <time>2014-05-30T12:09:56Z</time>
      </trkpt>
      <trkpt lat="44.2992" lon="3.67237">
        <ele>635</ele>
        <time>2014-05-30T12:10:06Z</time>
      </trkpt>
      <trkpt lat="44.29914" lon="3.67219">
        <ele>634</ele>
        <time>2014-05-30T12:10:16Z</time>
      </trkpt>
      <trkpt lat="44.29905" lon="3.67211">
        <ele>634</ele>
        <time>2014-05-30T12:10:26Z</time>
      </trkpt>
      <trkpt lat="44.29895" lon="3.672">
        <ele>634</ele>
        <time>2014-05-30T12:10:36Z</time>
      </trkpt>
      <trkpt lat="44.29882" lon="3.67185">
        <ele>636</ele>
        <time>2014-05-30T12:10:46Z</time>
      </trkpt>
      <trkpt lat="44.29866" lon="3.67174">
        <ele>636</ele>
        <time>2014-05-30T12:10:56Z</time>
      </trkpt>
      <trkpt lat="44.2986" lon="3.67165">
        <ele>636</ele>
        <time>2014-05-30T12:11:06Z</time>
      </trkpt>
      <trkpt lat="44.29839" lon="3.67151">
        <ele>641</ele>
        <time>2014-05-30T12:11:16Z</time>
      </trkpt>
      <trkpt lat="44.29829" lon="3.6714">
        <ele>643</ele>
        <time>2014-05-30T12:11:26Z</time>
      </trkpt>
      <trkpt lat="44.29824" lon="3.67126">
        <ele>636</ele>
        <time>2014-05-30T12:11:37Z</time>
      </trkpt>
      <trkpt lat="44.29816" lon="3.67116">
        <ele>630</ele>
        <time>2014-05-30T12:11:46Z</time>
      </trkpt>
      <trkpt lat="44.29807" lon="3.67101">
        <ele>628</ele>
        <time>2014-05-30T12:11:56Z</time>
      </trkpt>
      <trkpt lat="44.298" lon="3.67082">
        <ele>628</ele>
        <time>2014-05-30T12:12:06Z</time>
      </trkpt>
      <trkpt lat="44.29796" lon="3.67065">
        <ele>628</ele>
        <time>2014-05-30T12:12:17Z</time>
      </trkpt>
      <trkpt lat="44.2979" lon="3.67051">
        <ele>625</ele>
        <time>2014-05-30T12:12:27Z</time>
      </trkpt>
      <trkpt lat="44.29788" lon="3.67038">
        <ele>622</ele>
        <time>2014-05-30T12:12:37Z</time>
      </trkpt>
      <trkpt lat="44.29789" lon="3.67026">
        <ele>621</ele>
        <time>2014-05-30T12:12:48Z</time>
      </trkpt>
      <trkpt lat="44.29791" lon="3.67024">
        <ele>621</ele>
        <time>2014-05-30T12:12:58Z</time>
      </trkpt>
      <trkpt lat="44.29791" lon="3.67023">
        <ele>622</ele>
        <time>2014-05-30T12:13:10Z</time>
      </trkpt>
      <trkpt lat="44.2979" lon="3.67024">
        <ele>622</ele>
        <time>2014-05-30T12:13:23Z</time>
      </trkpt>
      <trkpt lat="44.29789" lon="3.67026">
        <ele>622</ele>
        <time>2014-05-30T12:13:41Z</time>
      </trkpt>
      <trkpt lat="44.29787" lon="3.67027">
        <ele>622</ele>
        <time>2014-05-30T12:13:53Z</time>
      </trkpt>
      <trkpt lat="44.29783" lon="3.67026">
        <ele>620</ele>
        <time>2014-05-30T12:14:03Z</time>
      </trkpt>
      <trkpt lat="44.29779" lon="3.67007">
        <ele>617</ele>
        <time>2014-05-30T12:14:12Z</time>
      </trkpt>
      <trkpt lat="44.29776" lon="3.66986">
        <ele>617</ele>
        <time>2014-05-30T12:14:21Z</time>
      </trkpt>
      <trkpt lat="44.29771" lon="3.66968">
        <ele>617</ele>
        <time>2014-05-30T12:14:31Z</time>
      </trkpt>
      <trkpt lat="44.29771" lon="3.66946">
        <ele>621</ele>
        <time>2014-05-30T12:14:41Z</time>
      </trkpt>
      <trkpt lat="44.29768" lon="3.6694">
        <ele>622</ele>
        <time>2014-05-30T12:14:53Z</time>
      </trkpt>
      <trkpt lat="44.29764" lon="3.6694">
        <ele>622</ele>
        <time>2014-05-30T12:15:02Z</time>
      </trkpt>
      <trkpt lat="44.29765" lon="3.66922">
        <ele>622</ele>
        <time>2014-05-30T12:15:12Z</time>
      </trkpt>
      <trkpt lat="44.29765" lon="3.66902">
        <ele>622</ele>
        <time>2014-05-30T12:15:21Z</time>
      </trkpt>
      <trkpt lat="44.29767" lon="3.66896">
        <ele>622</ele>
        <time>2014-05-30T12:15:33Z</time>
      </trkpt>
      <trkpt lat="44.2977" lon="3.669">
        <ele>622</ele>
        <time>2014-05-30T12:15:45Z</time>
      </trkpt>
      <trkpt lat="44.29771" lon="3.66901">
        <ele>616</ele>
        <time>2014-05-30T12:15:55Z</time>
      </trkpt>
      <trkpt lat="44.29771" lon="3.66899">
        <ele>612</ele>
        <time>2014-05-30T12:16:05Z</time>
      </trkpt>
      <trkpt lat="44.2977" lon="3.669">
        <ele>612</ele>
        <time>2014-05-30T12:16:15Z</time>
      </trkpt>
      <trkpt lat="44.2977" lon="3.66898">
        <ele>611</ele>
        <time>2014-05-30T12:16:27Z</time>
      </trkpt>
      <trkpt lat="44.29768" lon="3.66879">
        <ele>616</ele>
        <time>2014-05-30T12:16:36Z</time>
      </trkpt>
      <trkpt lat="44.29768" lon="3.66857">
        <ele>617</ele>
        <time>2014-05-30T12:16:46Z</time>
      </trkpt>
      <trkpt lat="44.29767" lon="3.66843">
        <ele>617</ele>
        <time>2014-05-30T12:16:56Z</time>
      </trkpt>
      <trkpt lat="44.29765" lon="3.66824">
        <ele>616</ele>
        <time>2014-05-30T12:17:06Z</time>
      </trkpt>
      <trkpt lat="44.29765" lon="3.66799">
        <ele>621</ele>
        <time>2014-05-30T12:17:21Z</time>
      </trkpt>
      <trkpt lat="44.2977" lon="3.6679">
        <ele>621</ele>
        <time>2014-05-30T12:17:32Z</time>
      </trkpt>
      <trkpt lat="44.29771" lon="3.66787">
        <ele>617</ele>
        <time>2014-05-30T12:17:45Z</time>
      </trkpt>
      <trkpt lat="44.29773" lon="3.66782">
        <ele>617</ele>
        <time>2014-05-30T12:17:54Z</time>
      </trkpt>
      <trkpt lat="44.29773" lon="3.66782">
        <ele>619</ele>
        <time>2014-05-30T12:18:04Z</time>
      </trkpt>
      <trkpt lat="44.29776" lon="3.66783">
        <ele>619</ele>
        <time>2014-05-30T12:18:14Z</time>
      </trkpt>
      <trkpt lat="44.29773" lon="3.66784">
        <ele>623</ele>
        <time>2014-05-30T12:18:28Z</time>
      </trkpt>
      <trkpt lat="44.29772" lon="3.66786">
        <ele>628</ele>
        <time>2014-05-30T12:18:37Z</time>
      </trkpt>
      <trkpt lat="44.29776" lon="3.66792">
        <ele>628</ele>
        <time>2014-05-30T12:18:48Z</time>
      </trkpt>
      <trkpt lat="44.29775" lon="3.66792">
        <ele>626</ele>
        <time>2014-05-30T12:19:00Z</time>
      </trkpt>
      <trkpt lat="44.29772" lon="3.6679">
        <ele>626</ele>
        <time>2014-05-30T12:19:10Z</time>
      </trkpt>
      <trkpt lat="44.29774" lon="3.66785">
        <ele>629</ele>
        <time>2014-05-30T12:19:23Z</time>
      </trkpt>
      <trkpt lat="44.29774" lon="3.66784">
        <ele>629</ele>
        <time>2014-05-30T12:19:40Z</time>
      </trkpt>
      <trkpt lat="44.29775" lon="3.66784">
        <ele>629</ele>
        <time>2014-05-30T12:19:51Z</time>
      </trkpt>
      <trkpt lat="44.29771" lon="3.66781">
        <ele>628</ele>
        <time>2014-05-30T12:20:02Z</time>
      </trkpt>
      <trkpt lat="44.2977" lon="3.66783">
        <ele>628</ele>
        <time>2014-05-30T12:20:12Z</time>
      </trkpt>
      <trkpt lat="44.29769" lon="3.66772">
        <ele>624</ele>
        <time>2014-05-30T12:20:21Z</time>
      </trkpt>
      <trkpt lat="44.29772" lon="3.66755">
        <ele>620</ele>
        <time>2014-05-30T12:20:31Z</time>
      </trkpt>
      <trkpt lat="44.29773" lon="3.66738">
        <ele>620</ele>
        <time>2014-05-30T12:20:41Z</time>
      </trkpt>
      <trkpt lat="44.29777" lon="3.66719">
        <ele>617</ele>
        <time>2014-05-30T12:20:51Z</time>
      </trkpt>
      <trkpt lat="44.2977" lon="3.66698">
        <ele>618</ele>
        <time>2014-05-30T12:21:01Z</time>
      </trkpt>
      <trkpt lat="44.29771" lon="3.66686">
        <ele>623</ele>
        <time>2014-05-30T12:21:13Z</time>
      </trkpt>
      <trkpt lat="44.29774" lon="3.66688">
        <ele>623</ele>
        <time>2014-05-30T12:21:22Z</time>
      </trkpt>
      <trkpt lat="44.29779" lon="3.66685">
        <ele>623</ele>
        <time>2014-05-30T12:21:32Z</time>
      </trkpt>
      <trkpt lat="44.29779" lon="3.66668">
        <ele>623</ele>
        <time>2014-05-30T12:21:41Z</time>
      </trkpt>
      <trkpt lat="44.29781" lon="3.66647">
        <ele>621</ele>
        <time>2014-05-30T12:21:50Z</time>
      </trkpt>
      <trkpt lat="44.29787" lon="3.66628">
        <ele>619</ele>
        <time>2014-05-30T12:22:00Z</time>
      </trkpt>
      <trkpt lat="44.29791" lon="3.66614">
        <ele>612</ele>
        <time>2014-05-30T12:22:10Z</time>
      </trkpt>
      <trkpt lat="44.29795" lon="3.66597">
        <ele>610</ele>
        <time>2014-05-30T12:22:19Z</time>
      </trkpt>
      <trkpt lat="44.29797" lon="3.66579">
        <ele>610</ele>
        <time>2014-05-30T12:22:28Z</time>
      </trkpt>
      <trkpt lat="44.29809" lon="3.66563">
        <ele>615</ele>
        <time>2014-05-30T12:22:37Z</time>
      </trkpt>
      <trkpt lat="44.29817" lon="3.66549">
        <ele>615</ele>
        <time>2014-05-30T12:22:46Z</time>
      </trkpt>
      <trkpt lat="44.29826" lon="3.66538">
        <ele>613</ele>
        <time>2014-05-30T12:22:56Z</time>
      </trkpt>
      <trkpt lat="44.29839" lon="3.66521">
        <ele>613</ele>
        <time>2014-05-30T12:23:06Z</time>
      </trkpt>
      <trkpt lat="44.29849" lon="3.6651">
        <ele>613</ele>
        <time>2014-05-30T12:23:17Z</time>
      </trkpt>
      <trkpt lat="44.29857" lon="3.66498">
        <ele>613</ele>
        <time>2014-05-30T12:23:27Z</time>
      </trkpt>
      <trkpt lat="44.29856" lon="3.66493">
        <ele>618</ele>
        <time>2014-05-30T12:23:54Z</time>
      </trkpt>
      <trkpt lat="44.29861" lon="3.66489">
        <ele>620</ele>
        <time>2014-05-30T12:24:03Z</time>
      </trkpt>
      <trkpt lat="44.29872" lon="3.66486">
        <ele>619</ele>
        <time>2014-05-30T12:24:12Z</time>
      </trkpt>
      <trkpt lat="44.29885" lon="3.66475">
        <ele>619</ele>
        <time>2014-05-30T12:24:21Z</time>
      </trkpt>
      <trkpt lat="44.29898" lon="3.66468">
        <ele>619</ele>
        <time>2014-05-30T12:24:31Z</time>
      </trkpt>
      <trkpt lat="44.29911" lon="3.66461">
        <ele>619</ele>
        <time>2014-05-30T12:24:41Z</time>
      </trkpt>
      <trkpt lat="44.29923" lon="3.66452">
        <ele>619</ele>
        <time>2014-05-30T12:24:51Z</time>
      </trkpt>
      <trkpt lat="44.29939" lon="3.66444">
        <ele>616</ele>
        <time>2014-05-30T12:25:01Z</time>
      </trkpt>
      <trkpt lat="44.29949" lon="3.6643">
        <ele>616</ele>
        <time>2014-05-30T12:25:11Z</time>
      </trkpt>
      <trkpt lat="44.2994" lon="3.66419">
        <ele>622</ele>
        <time>2014-05-30T12:25:21Z</time>
      </trkpt>
      <trkpt lat="44.29941" lon="3.66423">
        <ele>622</ele>
        <time>2014-05-30T12:25:31Z</time>
      </trkpt>
      <trkpt lat="44.29948" lon="3.66426">
        <ele>622</ele>
        <time>2014-05-30T12:25:41Z</time>
      </trkpt>
      <trkpt lat="44.29959" lon="3.66433">
        <ele>620</ele>
        <time>2014-05-30T12:25:51Z</time>
      </trkpt>
      <trkpt lat="44.29969" lon="3.66424">
        <ele>619</ele>
        <time>2014-05-30T12:26:02Z</time>
      </trkpt>
      <trkpt lat="44.2998" lon="3.66417">
        <ele>619</ele>
        <time>2014-05-30T12:26:11Z</time>
      </trkpt>
      <trkpt lat="44.29993" lon="3.66409">
        <ele>619</ele>
        <time>2014-05-30T12:26:21Z</time>
      </trkpt>
      <trkpt lat="44.30006" lon="3.66401">
        <ele>619</ele>
        <time>2014-05-30T12:26:32Z</time>
      </trkpt>
      <trkpt lat="44.30018" lon="3.66396">
        <ele>618</ele>
        <time>2014-05-30T12:26:41Z</time>
      </trkpt>
      <trkpt lat="44.30028" lon="3.66387">
        <ele>618</ele>
        <time>2014-05-30T12:26:51Z</time>
      </trkpt>
      <trkpt lat="44.30034" lon="3.66382">
        <ele>618</ele>
        <time>2014-05-30T12:27:04Z</time>
      </trkpt>
      <trkpt lat="44.30045" lon="3.66381">
        <ele>618</ele>
        <time>2014-05-30T12:27:13Z</time>
      </trkpt>
      <trkpt lat="44.30055" lon="3.66375">
        <ele>617</ele>
        <time>2014-05-30T12:27:22Z</time>
      </trkpt>
      <trkpt lat="44.30067" lon="3.66376">
        <ele>617</ele>
        <time>2014-05-30T12:27:31Z</time>
      </trkpt>
      <trkpt lat="44.30081" lon="3.66378">
        <ele>617</ele>
        <time>2014-05-30T12:27:41Z</time>
      </trkpt>
      <trkpt lat="44.3009" lon="3.66373">
        <ele>617</ele>
        <time>2014-05-30T12:27:49Z</time>
      </trkpt>
    </trkseg>
  </trk>
</gpx>